Wetterdaten: Donnerstag, 16.09.2021
Datum Zeit Temp. Aussen Temp. o. S. Temp +5cm Feuchte Auss Luftdruck Regen Sonnenschein Regendauer Solar Windben Empfang
16.09.2021 00:00 17,0 C 16,1 C 15,6 C 90 % 1014,7 hPa 0,0 l/m 0 min 0 min 0 W/m 6,4 km/h (2 Bft) 95,65 %
16.09.2021 00:02 17,0 C 16,1 C 15,6 C 90 % 1014,7 hPa 0,0 l/m 0 min 0 min 0 W/m 9,7 km/h (2 Bft) 95,35 %
16.09.2021 00:04 17,0 C 16,1 C 15,6 C 90 % 1014,8 hPa 0,0 l/m 0 min 0 min 0 W/m 9,7 km/h (2 Bft) 97,87 %
16.09.2021 00:07 16,9 C 16,1 C 15,6 C 90 % 1014,8 hPa 0,0 l/m 0 min 0 min 0 W/m 6,4 km/h (2 Bft) 97,14 %
16.09.2021 00:08 16,9 C 16,1 C 15,6 C 90 % 1014,8 hPa 0,0 l/m 0 min 0 min 0 W/m 12,9 km/h (3 Bft) 91,67 %
16.09.2021 00:10 16,9 C 16,1 C 15,6 C 90 % 1014,8 hPa 0,0 l/m 0 min 0 min 0 W/m 6,4 km/h (2 Bft) 95,74 %
16.09.2021 00:12 16,8 C 16,1 C 15,6 C 90 % 1014,9 hPa 0,0 l/m 0 min 0 min 0 W/m 12,9 km/h (3 Bft) 93,48 %
16.09.2021 00:14 16,8 C 16,1 C 15,6 C 90 % 1014,9 hPa 0,0 l/m 0 min 0 min 0 W/m 12,9 km/h (3 Bft) 95,74 %
16.09.2021 00:16 16,8 C 16,1 C 15,6 C 90 % 1014,9 hPa 0,0 l/m 0 min 0 min 0 W/m 6,4 km/h (2 Bft) 93,62 %
16.09.2021 00:18 16,7 C 16,1 C 15,0 C 90 % 1014,9 hPa 0,0 l/m 0 min 0 min 0 W/m 12,9 km/h (3 Bft) 95,74 %
16.09.2021 00:20 16,7 C 16,1 C 15,0 C 90 % 1014,9 hPa 0,0 l/m 0 min 0 min 0 W/m 9,7 km/h (2 Bft) 93,62 %
16.09.2021 00:22 16,6 C 16,1 C 15,0 C 89 % 1014,9 hPa 0,0 l/m 0 min 0 min 0 W/m 6,4 km/h (2 Bft) 93,62 %
16.09.2021 00:24 16,6 C 16,1 C 15,0 C 89 % 1014,9 hPa 0,0 l/m 0 min 0 min 0 W/m 9,7 km/h (2 Bft) 93,48 %
16.09.2021 00:26 16,6 C 16,1 C 15,0 C 89 % 1014,9 hPa 0,0 l/m 0 min 0 min 0 W/m 6,4 km/h (2 Bft) 93,62 %
16.09.2021 00:28 16,6 C 16,1 C 15,0 C 89 % 1014,9 hPa 0,0 l/m 0 min 0 min 0 W/m 6,4 km/h (2 Bft) 93,62 %
16.09.2021 00:30 16,5 C 16,1 C 15,0 C 89 % 1014,9 hPa 0,0 l/m 0 min 0 min 0 W/m 12,9 km/h (3 Bft) 95,74 %
16.09.2021 00:32 16,5 C 16,1 C 15,0 C 89 % 1014,9 hPa 0,0 l/m 0 min 0 min 0 W/m 6,4 km/h (2 Bft) 93,62 %
16.09.2021 00:34 16,5 C 16,1 C 15,0 C 89 % 1014,9 hPa 0,0 l/m 0 min 0 min 0 W/m 9,7 km/h (2 Bft) 95,74 %
16.09.2021 00:36 16,5 C 16,1 C 15,0 C 89 % 1015,0 hPa 0,0 l/m 0 min 0 min 0 W/m 16,1 km/h (3 Bft) 95,65 %
16.09.2021 00:38 16,5 C 15,6 C 15,0 C 88 % 1015,0 hPa 0,0 l/m 0 min 0 min 0 W/m 9,7 km/h (2 Bft) 74,47 %
16.09.2021 00:40 16,5 C 15,6 C 15,0 C 88 % 1015,0 hPa 0,0 l/m 0 min 0 min 0 W/m 12,9 km/h (3 Bft) 72,34 %
16.09.2021 00:42 16,4 C 15,6 C 15,0 C 88 % 1014,9 hPa 0,0 l/m 0 min 0 min 0 W/m 16,1 km/h (3 Bft) 95,74 %
16.09.2021 00:44 16,4 C 15,6 C 15,0 C 87 % 1015,0 hPa 0,0 l/m 0 min 0 min 0 W/m 9,7 km/h (2 Bft) 93,62 %
16.09.2021 00:46 16,4 C 15,6 C 15,0 C 87 % 1015,0 hPa 0,0 l/m 0 min 0 min 0 W/m 9,7 km/h (2 Bft) 95,74 %
16.09.2021 00:48 16,4 C 15,6 C 15,0 C 87 % 1015,1 hPa 0,0 l/m 0 min 0 min 0 W/m 9,7 km/h (2 Bft) 95,65 %
16.09.2021 00:50 16,4 C 15,6 C 15,0 C 87 % 1015,1 hPa 0,0 l/m 0 min 0 min 0 W/m 12,9 km/h (3 Bft) 95,74 %
16.09.2021 00:52 16,4 C 15,6 C 15,0 C 87 % 1015,1 hPa 0,0 l/m 0 min 0 min 0 W/m 9,7 km/h (2 Bft) 95,74 %
16.09.2021 00:54 16,4 C 15,6 C 15,0 C 87 % 1015,1 hPa 0,0 l/m 0 min 0 min 0 W/m 6,4 km/h (2 Bft) 95,74 %
16.09.2021 00:56 16,4 C 15,6 C 15,0 C 87 % 1015,1 hPa 0,0 l/m 0 min 0 min 0 W/m 3,2 km/h (1 Bft) 97,87 %
16.09.2021 00:58 16,4 C 15,6 C 15,0 C 87 % 1015,1 hPa 0,0 l/m 0 min 0 min 0 W/m 6,4 km/h (2 Bft) 97,87 %
16.09.2021 01:00 16,4 C 15,6 C 15,0 C 87 % 1015,1 hPa 0,0 l/m 0 min 0 min 0 W/m 6,4 km/h (2 Bft) 97,83 %
16.09.2021 01:02 16,4 C 15,6 C 15,0 C 88 % 1015,1 hPa 0,0 l/m 0 min 0 min 0 W/m 6,4 km/h (2 Bft) 95,74 %
16.09.2021 01:04 16,4 C 15,6 C 15,0 C 88 % 1015,1 hPa 0,0 l/m 0 min 0 min 0 W/m 9,7 km/h (2 Bft) 95,74 %
16.09.2021 01:06 16,4 C 15,6 C 15,0 C 88 % 1015,1 hPa 0,0 l/m 0 min 0 min 0 W/m 9,7 km/h (2 Bft) 95,74 %
16.09.2021 01:08 16,3 C 15,6 C 15,0 C 87 % 1015,2 hPa 0,0 l/m 0 min 0 min 0 W/m 6,4 km/h (2 Bft) 100,00 %
16.09.2021 01:10 16,3 C 15,6 C 15,0 C 87 % 1015,1 hPa 0,0 l/m 0 min 0 min 0 W/m 6,4 km/h (2 Bft) 100,00 %
16.09.2021 01:12 16,3 C 15,6 C 15,0 C 87 % 1015,1 hPa 0,0 l/m 0 min 0 min 0 W/m 6,4 km/h (2 Bft) 97,83 %
16.09.2021 01:14 16,2 C 15,6 C 15,0 C 87 % 1015,1 hPa 0,0 l/m 0 min 0 min 0 W/m 9,7 km/h (2 Bft) 100,00 %
16.09.2021 01:16 16,2 C 15,6 C 15,0 C 87 % 1015,1 hPa 0,0 l/m 0 min 0 min 0 W/m 12,9 km/h (3 Bft) 100,00 %
16.09.2021 01:18 16,1 C 15,6 C 14,5 C 86 % 1015,1 hPa 0,0 l/m 0 min 0 min 0 W/m 6,4 km/h (2 Bft) 100,00 %
16.09.2021 01:20 16,1 C 15,6 C 14,5 C 86 % 1015,0 hPa 0,0 l/m 0 min 0 min 0 W/m 9,7 km/h (2 Bft) 97,87 %
16.09.2021 01:22 16,1 C 15,6 C 14,5 C 86 % 1015,0 hPa 0,0 l/m 0 min 0 min 0 W/m 9,7 km/h (2 Bft) 100,00 %
16.09.2021 01:24 16,1 C 15,6 C 14,5 C 86 % 1015,0 hPa 0,0 l/m 0 min 0 min 0 W/m 3,2 km/h (1 Bft) 100,00 %
16.09.2021 01:26 16,0 C 15,6 C 14,5 C 86 % 1015,0 hPa 0,0 l/m 0 min 0 min 0 W/m 9,7 km/h (2 Bft) 100,00 %
16.09.2021 01:28 16,0 C 15,0 C 14,5 C 86 % 1015,0 hPa 0,0 l/m 0 min 0 min 0 W/m 6,4 km/h (2 Bft) 100,00 %
16.09.2021 01:30 16,0 C 15,0 C 14,5 C 86 % 1015,1 hPa 0,0 l/m 0 min 0 min 0 W/m 12,9 km/h (3 Bft) 100,00 %
16.09.2021 01:32 16,0 C 15,0 C 14,5 C 85 % 1015,1 hPa 0,0 l/m 0 min 0 min 0 W/m 12,9 km/h (3 Bft) 97,87 %
16.09.2021 01:34 15,9 C 15,0 C 14,5 C 85 % 1015,1 hPa 0,0 l/m 0 min 0 min 0 W/m 6,4 km/h (2 Bft) 100,00 %
16.09.2021 01:36 15,9 C 15,0 C 14,5 C 85 % 1015,1 hPa 0,0 l/m 0 min 0 min 0 W/m 6,4 km/h (2 Bft) 97,83 %
16.09.2021 01:38 15,9 C 15,0 C 14,5 C 85 % 1015,2 hPa 0,0 l/m 0 min 0 min 0 W/m 6,4 km/h (2 Bft) 100,00 %
16.09.2021 01:40 15,9 C 15,0 C 14,5 C 86 % 1015,2 hPa 0,0 l/m 0 min 0 min 0 W/m 3,2 km/h (1 Bft) 100,00 %
16.09.2021 01:42 15,9 C 15,0 C 14,5 C 86 % 1015,2 hPa 0,0 l/m 0 min 0 min 0 W/m 3,2 km/h (1 Bft) 97,87 %
16.09.2021 01:44 15,9 C 15,0 C 13,9 C 86 % 1015,1 hPa 0,0 l/m 0 min 0 min 0 W/m 6,4 km/h (2 Bft) 100,00 %
16.09.2021 01:46 15,8 C 15,0 C 13,9 C 86 % 1015,1 hPa 0,0 l/m 0 min 0 min 0 W/m 3,2 km/h (1 Bft) 97,87 %
16.09.2021 01:48 15,8 C 15,0 C 13,9 C 86 % 1015,1 hPa 0,0 l/m 0 min 0 min 0 W/m 3,2 km/h (1 Bft) 95,65 %
16.09.2021 01:50 15,8 C 15,0 C 13,9 C 86 % 1015,1 hPa 0,0 l/m 0 min 0 min 0 W/m 3,2 km/h (1 Bft) 97,87 %
16.09.2021 01:52 15,7 C 15,0 C 13,9 C 86 % 1015,1 hPa 0,0 l/m 0 min 0 min 0 W/m 6,4 km/h (2 Bft) 95,74 %
16.09.2021 01:54 15,7 C 14,4 C 13,9 C 86 % 1015,0 hPa 0,0 l/m 0 min 0 min 0 W/m 9,7 km/h (2 Bft) 97,87 %
16.09.2021 01:56 15,6 C 14,4 C 13,9 C 86 % 1015,1 hPa 0,0 l/m 0 min 0 min 0 W/m 3,2 km/h (1 Bft) 97,87 %
16.09.2021 01:58 15,6 C 14,4 C 13,9 C 86 % 1015,1 hPa 0,0 l/m 0 min 0 min 0 W/m 3,2 km/h (1 Bft) 97,87 %
16.09.2021 02:00 15,5 C 14,4 C 13,9 C 86 % 1015,1 hPa 0,0 l/m 0 min 0 min 0 W/m 6,4 km/h (2 Bft) 97,83 %
16.09.2021 02:02 15,5 C 14,4 C 13,9 C 86 % 1015,1 hPa 0,0 l/m 0 min 0 min 0 W/m 6,4 km/h (2 Bft) 95,74 %
16.09.2021 02:04 15,5 C 14,4 C 13,4 C 86 % 1015,1 hPa 0,0 l/m 0 min 0 min 0 W/m 3,2 km/h (1 Bft) 97,87 %
16.09.2021 02:06 15,4 C 14,4 C 13,4 C 86 % 1015,1 hPa 0,0 l/m 0 min 0 min 0 W/m 3,2 km/h (1 Bft) 97,87 %
16.09.2021 02:08 15,4 C 14,4 C 13,4 C 86 % 1015,2 hPa 0,0 l/m 0 min 0 min 0 W/m 3,2 km/h (1 Bft) 95,74 %
16.09.2021 02:10 15,4 C 13,9 C 13,4 C 86 % 1015,2 hPa 0,0 l/m 0 min 0 min 0 W/m 3,2 km/h (1 Bft) 97,87 %
16.09.2021 02:12 15,4 C 13,9 C 13,4 C 86 % 1015,2 hPa 0,0 l/m 0 min 0 min 0 W/m 0,0 km/h (0 Bft) 97,83 %
16.09.2021 02:14 15,3 C 13,9 C 13,4 C 86 % 1015,2 hPa 0,0 l/m 0 min 0 min 0 W/m 0,0 km/h (0 Bft) 97,87 %
16.09.2021 02:16 15,3 C 13,9 C 13,4 C 86 % 1015,2 hPa 0,0 l/m 0 min 0 min 0 W/m 0,0 km/h (0 Bft) 97,87 %
16.09.2021 02:18 15,3 C 13,9 C 13,4 C 86 % 1015,2 hPa 0,0 l/m 0 min 0 min 0 W/m 0,0 km/h (0 Bft) 100,00 %
16.09.2021 02:20 15,3 C 13,9 C 13,4 C 87 % 1015,2 hPa 0,0 l/m 0 min 0 min 0 W/m 0,0 km/h (0 Bft) 100,00 %
16.09.2021 02:22 15,2 C 13,9 C 13,4 C 87 % 1015,2 hPa 0,0 l/m 0 min 0 min 0 W/m 0,0 km/h (0 Bft) 100,00 %
16.09.2021 02:24 15,1 C 13,9 C 13,4 C 87 % 1015,2 hPa 0,0 l/m 0 min 0 min 0 W/m 0,0 km/h (0 Bft) 100,00 %
16.09.2021 02:26 15,1 C 13,3 C 12,8 C 87 % 1015,3 hPa 0,0 l/m 0 min 0 min 0 W/m 0,0 km/h (0 Bft) 100,00 %
16.09.2021 02:28 15,0 C 13,3 C 12,8 C 87 % 1015,3 hPa 0,0 l/m 0 min 0 min 0 W/m 0,0 km/h (0 Bft) 100,00 %
16.09.2021 02:30 15,0 C 13,3 C 12,8 C 87 % 1015,3 hPa 0,0 l/m 0 min 0 min 0 W/m 0,0 km/h (0 Bft) 100,00 %
16.09.2021 02:32 14,9 C 13,3 C 12,8 C 87 % 1015,2 hPa 0,0 l/m 0 min 0 min 0 W/m 0,0 km/h (0 Bft) 97,87 %
16.09.2021 02:34 14,9 C 13,3 C 12,8 C 87 % 1015,2 hPa 0,0 l/m 0 min 0 min 0 W/m 0,0 km/h (0 Bft) 100,00 %
16.09.2021 02:36 14,9 C 13,3 C 12,8 C 87 % 1015,2 hPa 0,0 l/m 0 min 0 min 0 W/m 0,0 km/h (0 Bft) 100,00 %
16.09.2021 02:38 14,8 C 13,3 C 12,8 C 87 % 1015,2 hPa 0,0 l/m 0 min 0 min 0 W/m 0,0 km/h (0 Bft) 100,00 %
16.09.2021 02:40 14,8 C 13,3 C 12,8 C 87 % 1015,2 hPa 0,0 l/m 0 min 0 min 0 W/m 0,0 km/h (0 Bft) 97,87 %
16.09.2021 02:42 14,7 C 13,3 C 12,8 C 88 % 1015,2 hPa 0,0 l/m 0 min 0 min 0 W/m 0,0 km/h (0 Bft) 100,00 %
16.09.2021 02:44 14,6 C 13,3 C 12,8 C 88 % 1015,2 hPa 0,0 l/m 0 min 0 min 0 W/m 0,0 km/h (0 Bft) 97,87 %
16.09.2021 02:46 14,6 C 13,3 C 12,8 C 88 % 1015,3 hPa 0,0 l/m 0 min 0 min 0 W/m 0,0 km/h (0 Bft) 100,00 %
16.09.2021 02:48 14,5 C 13,3 C 12,8 C 88 % 1015,3 hPa 0,0 l/m 0 min 0 min 0 W/m 0,0 km/h (0 Bft) 97,87 %
16.09.2021 02:50 14,5 C 13,3 C 12,8 C 88 % 1015,3 hPa 0,0 l/m 0 min 0 min 0 W/m 0,0 km/h (0 Bft) 100,00 %
16.09.2021 02:52 14,4 C 12,8 C 12,8 C 88 % 1015,3 hPa 0,0 l/m 0 min 0 min 0 W/m 0,0 km/h (0 Bft) 97,87 %
16.09.2021 02:54 14,4 C 12,8 C 12,8 C 88 % 1015,3 hPa 0,0 l/m 0 min 0 min 0 W/m 0,0 km/h (0 Bft) 97,87 %
16.09.2021 02:56 14,4 C 12,8 C 12,3 C 88 % 1015,3 hPa 0,0 l/m 0 min 0 min 0 W/m 0,0 km/h (0 Bft) 97,87 %
16.09.2021 02:58 14,4 C 12,8 C 12,3 C 89 % 1015,3 hPa 0,0 l/m 0 min 0 min 0 W/m 0,0 km/h (0 Bft) 97,83 %
16.09.2021 03:00 14,3 C 12,8 C 12,3 C 89 % 1015,3 hPa 0,0 l/m 0 min 0 min 0 W/m 0,0 km/h (0 Bft) 95,74 %
16.09.2021 03:02 14,2 C 12,8 C 12,3 C 89 % 1015,3 hPa 0,0 l/m 0 min 0 min 0 W/m 0,0 km/h (0 Bft) 97,87 %
16.09.2021 03:04 14,2 C 12,8 C 12,3 C 89 % 1015,3 hPa 0,0 l/m 0 min 0 min 0 W/m 0,0 km/h (0 Bft) 97,87 %
16.09.2021 03:06 14,2 C 12,8 C 12,3 C 89 % 1015,3 hPa 0,0 l/m 0 min 0 min 0 W/m 0,0 km/h (0 Bft) 95,74 %
16.09.2021 03:08 14,2 C 12,8 C 12,3 C 89 % 1015,3 hPa 0,0 l/m 0 min 0 min 0 W/m 0,0 km/h (0 Bft) 97,87 %
16.09.2021 03:10 14,2 C 12,8 C 12,3 C 89 % 1015,3 hPa 0,0 l/m 0 min 0 min 0 W/m 0,0 km/h (0 Bft) 97,83 %
16.09.2021 03:12 14,1 C 12,8 C 12,3 C 89 % 1015,3 hPa 0,0 l/m 0 min 0 min 0 W/m 0,0 km/h (0 Bft) 97,87 %
16.09.2021 03:14 14,1 C 12,8 C 12,3 C 89 % 1015,3 hPa 0,0 l/m 0 min 0 min 0 W/m 0,0 km/h (0 Bft) 95,74 %
16.09.2021 03:16 14,0 C 12,8 C 12,3 C 90 % 1015,3 hPa 0,0 l/m 0 min 0 min 0 W/m 0,0 km/h (0 Bft) 97,87 %
16.09.2021 03:18 14,0 C 12,8 C 12,3 C 90 % 1015,3 hPa 0,0 l/m 0 min 0 min 0 W/m 0,0 km/h (0 Bft) 97,87 %
16.09.2021 03:20 14,0 C 12,8 C 12,3 C 90 % 1015,3 hPa 0,0 l/m 0 min 0 min 0 W/m 0,0 km/h (0 Bft) 97,87 %
16.09.2021 03:22 13,9 C 12,8 C 12,3 C 90 % 1015,4 hPa 0,0 l/m 0 min 0 min 0 W/m 0,0 km/h (0 Bft) 95,65 %
16.09.2021 03:24 13,9 C 12,8 C 12,3 C 90 % 1015,4 hPa 0,0 l/m 0 min 0 min 0 W/m 0,0 km/h (0 Bft) 97,87 %
16.09.2021 03:26 13,9 C 12,8 C 12,3 C 90 % 1015,4 hPa 0,0 l/m 0 min 0 min 0 W/m 0,0 km/h (0 Bft) 91,49 %
16.09.2021 03:28 13,9 C 12,8 C 12,3 C 90 % 1015,4 hPa 0,0 l/m 0 min 0 min 0 W/m 0,0 km/h (0 Bft) 95,74 %
16.09.2021 03:30 13,8 C 12,8 C 12,3 C 90 % 1015,3 hPa 0,0 l/m 0 min 0 min 0 W/m 0,0 km/h (0 Bft) 93,62 %
16.09.2021 03:32 13,8 C 12,8 C 12,3 C 90 % 1015,4 hPa 0,0 l/m 0 min 0 min 0 W/m 3,2 km/h (1 Bft) 95,74 %
16.09.2021 03:34 13,8 C 12,8 C 12,3 C 90 % 1015,4 hPa 0,0 l/m 0 min 0 min 0 W/m 3,2 km/h (1 Bft) 93,48 %
16.09.2021 03:36 13,8 C 12,8 C 12,3 C 90 % 1015,4 hPa 0,0 l/m 0 min 0 min 0 W/m 0,0 km/h (0 Bft) 95,74 %
16.09.2021 03:38 13,7 C 12,8 C 12,3 C 90 % 1015,4 hPa 0,0 l/m 0 min 0 min 0 W/m 0,0 km/h (0 Bft) 93,62 %
16.09.2021 03:40 13,7 C 12,8 C 12,3 C 90 % 1015,4 hPa 0,0 l/m 0 min 0 min 0 W/m 0,0 km/h (0 Bft) 95,74 %
16.09.2021 03:42 13,7 C 12,8 C 12,3 C 90 % 1015,4 hPa 0,0 l/m 0 min 0 min 0 W/m 3,2 km/h (1 Bft) 93,62 %
16.09.2021 03:44 13,6 C 12,8 C 12,3 C 90 % 1015,4 hPa 0,0 l/m 0 min 0 min 0 W/m 3,2 km/h (1 Bft) 95,74 %
16.09.2021 03:46 13,6 C 12,8 C 12,3 C 90 % 1015,5 hPa 0,0 l/m 0 min 0 min 0 W/m 3,2 km/h (1 Bft) 95,65 %
16.09.2021 03:48 13,6 C 12,8 C 12,3 C 90 % 1015,5 hPa 0,0 l/m 0 min 0 min 0 W/m 3,2 km/h (1 Bft) 95,74 %
16.09.2021 03:50 13,6 C 12,8 C 12,3 C 90 % 1015,5 hPa 0,0 l/m 0 min 0 min 0 W/m 3,2 km/h (1 Bft) 95,74 %
16.09.2021 03:52 13,6 C 12,8 C 12,3 C 90 % 1015,5 hPa 0,0 l/m 0 min 0 min 0 W/m 3,2 km/h (1 Bft) 95,74 %
16.09.2021 03:54 13,5 C 12,8 C 12,3 C 90 % 1015,5 hPa 0,0 l/m 0 min 0 min 0 W/m 0,0 km/h (0 Bft) 93,62 %
16.09.2021 03:56 13,5 C 12,8 C 12,3 C 90 % 1015,5 hPa 0,0 l/m 0 min 0 min 0 W/m 0,0 km/h (0 Bft) 95,74 %
16.09.2021 03:58 13,5 C 12,8 C 12,3 C 91 % 1015,6 hPa 0,0 l/m 0 min 0 min 0 W/m 3,2 km/h (1 Bft) 97,83 %
16.09.2021 04:00 13,5 C 12,8 C 12,3 C 91 % 1015,7 hPa 0,0 l/m 0 min 0 min 0 W/m 3,2 km/h (1 Bft) 95,74 %
16.09.2021 04:02 13,5 C 12,8 C 12,3 C 91 % 1015,6 hPa 0,0 l/m 0 min 0 min 0 W/m 3,2 km/h (1 Bft) 100,00 %
16.09.2021 04:04 13,5 C 12,8 C 12,3 C 91 % 1015,6 hPa 0,0 l/m 0 min 0 min 0 W/m 3,2 km/h (1 Bft) 76,60 %
16.09.2021 04:06 13,5 C 12,8 C 12,3 C 91 % 1015,6 hPa 0,0 l/m 0 min 0 min 0 W/m 3,2 km/h (1 Bft) 71,05 %
16.09.2021 04:08 13,5 C 12,8 C 12,3 C 91 % 1015,7 hPa 0,0 l/m 0 min 0 min 0 W/m 3,2 km/h (1 Bft) 97,87 %
16.09.2021 04:10 13,5 C 12,8 C 12,3 C 91 % 1015,7 hPa 0,0 l/m 0 min 0 min 0 W/m 3,2 km/h (1 Bft) 97,87 %
16.09.2021 04:12 13,5 C 12,8 C 12,3 C 91 % 1015,7 hPa 0,0 l/m 0 min 0 min 0 W/m 3,2 km/h (1 Bft) 97,83 %
16.09.2021 04:14 13,5 C 12,8 C 12,3 C 92 % 1015,8 hPa 0,0 l/m 0 min 0 min 0 W/m 3,2 km/h (1 Bft) 97,87 %
16.09.2021 04:16 13,4 C 12,8 C 12,3 C 92 % 1015,7 hPa 0,0 l/m 0 min 0 min 0 W/m 3,2 km/h (1 Bft) 97,87 %
16.09.2021 04:18 13,4 C 12,8 C 12,3 C 92 % 1015,8 hPa 0,0 l/m 0 min 0 min 0 W/m 3,2 km/h (1 Bft) 95,74 %
16.09.2021 04:20 13,4 C 12,2 C 12,3 C 91 % 1015,8 hPa 0,0 l/m 0 min 0 min 0 W/m 0,0 km/h (0 Bft) 97,87 %
16.09.2021 04:22 13,4 C 12,2 C 12,3 C 91 % 1015,8 hPa 0,0 l/m 0 min 0 min 0 W/m 3,2 km/h (1 Bft) 97,87 %
16.09.2021 04:24 13,4 C 12,2 C 12,3 C 91 % 1015,8 hPa 0,0 l/m 0 min 0 min 0 W/m 3,2 km/h (1 Bft) 97,83 %
16.09.2021 04:26 13,3 C 12,2 C 12,3 C 92 % 1015,8 hPa 0,0 l/m 0 min 0 min 0 W/m 6,4 km/h (2 Bft) 97,87 %
16.09.2021 04:28 13,3 C 12,2 C 12,3 C 92 % 1015,8 hPa 0,0 l/m 0 min 0 min 0 W/m 3,2 km/h (1 Bft) 100,00 %
16.09.2021 04:30 13,3 C 12,2 C 12,3 C 92 % 1015,8 hPa 0,0 l/m 0 min 0 min 0 W/m 3,2 km/h (1 Bft) 97,87 %
16.09.2021 04:32 13,3 C 12,2 C 12,3 C 92 % 1015,9 hPa 0,0 l/m 0 min 0 min 0 W/m 3,2 km/h (1 Bft) 100,00 %
16.09.2021 04:34 13,3 C 12,2 C 12,3 C 92 % 1015,9 hPa 0,0 l/m 0 min 0 min 0 W/m 3,2 km/h (1 Bft) 100,00 %
16.09.2021 04:36 13,2 C 12,2 C 12,3 C 92 % 1015,9 hPa 0,0 l/m 0 min 0 min 0 W/m 3,2 km/h (1 Bft) 100,00 %
16.09.2021 04:38 13,3 C 12,2 C 12,3 C 92 % 1015,9 hPa 0,0 l/m 0 min 0 min 0 W/m 3,2 km/h (1 Bft) 97,87 %
16.09.2021 04:40 13,2 C 12,2 C 12,3 C 92 % 1015,8 hPa 0,0 l/m 0 min 0 min 0 W/m 3,2 km/h (1 Bft) 100,00 %
16.09.2021 04:42 13,2 C 12,2 C 12,3 C 92 % 1015,8 hPa 0,0 l/m 0 min 0 min 0 W/m 3,2 km/h (1 Bft) 100,00 %
16.09.2021 04:44 13,2 C 12,2 C 12,3 C 92 % 1015,9 hPa 0,0 l/m 0 min 0 min 0 W/m 3,2 km/h (1 Bft) 100,00 %
16.09.2021 04:46 13,1 C 12,2 C 12,3 C 92 % 1015,9 hPa 0,0 l/m 0 min 0 min 0 W/m 3,2 km/h (1 Bft) 100,00 %
16.09.2021 04:48 13,1 C 12,2 C 12,3 C 92 % 1015,9 hPa 0,0 l/m 0 min 0 min 0 W/m 0,0 km/h (0 Bft) 97,87 %
16.09.2021 04:50 13,1 C 12,2 C 12,3 C 92 % 1015,9 hPa 0,0 l/m 0 min 0 min 0 W/m 0,0 km/h (0 Bft) 100,00 %
16.09.2021 04:52 13,1 C 12,2 C 11,7 C 92 % 1016,0 hPa 0,0 l/m 0 min 0 min 0 W/m 0,0 km/h (0 Bft) 100,00 %
16.09.2021 04:54 13,1 C 12,2 C 11,7 C 92 % 1016,0 hPa 0,0 l/m 0 min 0 min 0 W/m 0,0 km/h (0 Bft) 100,00 %
16.09.2021 04:56 13,1 C 12,2 C 11,7 C 92 % 1016,0 hPa 0,0 l/m 0 min 0 min 0 W/m 3,2 km/h (1 Bft) 100,00 %
16.09.2021 04:58 13,1 C 12,2 C 12,3 C 92 % 1016,0 hPa 0,0 l/m 0 min 0 min 0 W/m 3,2 km/h (1 Bft) 100,00 %
16.09.2021 05:00 13,1 C 12,2 C 11,7 C 92 % 1016,1 hPa 0,0 l/m 0 min 0 min 0 W/m 3,2 km/h (1 Bft) 100,00 %
16.09.2021 05:02 13,0 C 12,2 C 11,7 C 92 % 1016,1 hPa 0,0 l/m 0 min 0 min 0 W/m 3,2 km/h (1 Bft) 100,00 %
16.09.2021 05:04 13,0 C 12,2 C 11,7 C 92 % 1016,1 hPa 0,0 l/m 0 min 0 min 0 W/m 6,4 km/h (2 Bft) 100,00 %
16.09.2021 05:06 13,0 C 12,2 C 11,7 C 93 % 1016,1 hPa 0,0 l/m 0 min 0 min 0 W/m 3,2 km/h (1 Bft) 97,87 %
16.09.2021 05:08 13,0 C 12,2 C 11,7 C 93 % 1016,2 hPa 0,0 l/m 0 min 0 min 0 W/m 3,2 km/h (1 Bft) 95,65 %
16.09.2021 05:10 13,0 C 12,2 C 11,7 C 93 % 1016,1 hPa 0,0 l/m 0 min 0 min 0 W/m 3,2 km/h (1 Bft) 100,00 %
16.09.2021 05:12 13,0 C 12,2 C 11,7 C 93 % 1016,2 hPa 0,0 l/m 0 min 0 min 0 W/m 6,4 km/h (2 Bft) 97,87 %
16.09.2021 05:14 13,0 C 12,2 C 12,3 C 93 % 1016,2 hPa 0,0 l/m 0 min 0 min 0 W/m 9,7 km/h (2 Bft) 97,87 %
16.09.2021 05:16 13,0 C 12,2 C 11,7 C 93 % 1016,1 hPa 0,0 l/m 0 min 0 min 0 W/m 3,2 km/h (1 Bft) 93,62 %
16.09.2021 05:18 12,9 C 12,2 C 11,7 C 93 % 1016,1 hPa 0,0 l/m 0 min 0 min 0 W/m 3,2 km/h (1 Bft) 95,74 %
16.09.2021 05:20 12,9 C 12,2 C 11,7 C 93 % 1016,1 hPa 0,0 l/m 0 min 0 min 0 W/m 6,4 km/h (2 Bft) 95,65 %
16.09.2021 05:22 12,9 C 12,2 C 11,7 C 93 % 1016,2 hPa 0,0 l/m 0 min 0 min 0 W/m 3,2 km/h (1 Bft) 95,74 %
16.09.2021 05:24 12,9 C 12,2 C 11,7 C 93 % 1016,1 hPa 0,0 l/m 0 min 0 min 0 W/m 3,2 km/h (1 Bft) 95,74 %
16.09.2021 05:26 12,9 C 12,2 C 11,7 C 93 % 1016,2 hPa 0,0 l/m 0 min 0 min 0 W/m 6,4 km/h (2 Bft) 95,74 %
16.09.2021 05:28 12,9 C 12,2 C 11,7 C 93 % 1016,1 hPa 0,0 l/m 0 min 0 min 0 W/m 3,2 km/h (1 Bft) 95,74 %
16.09.2021 05:30 12,9 C 12,2 C 11,7 C 93 % 1016,1 hPa 0,0 l/m 0 min 0 min 0 W/m 0,0 km/h (0 Bft) 93,62 %
16.09.2021 05:32 12,9 C 12,2 C 11,7 C 93 % 1016,0 hPa 0,0 l/m 0 min 0 min 0 W/m 3,2 km/h (1 Bft) 93,48 %
16.09.2021 05:34 12,9 C 12,2 C 11,7 C 93 % 1016,1 hPa 0,0 l/m 0 min 0 min 0 W/m 3,2 km/h (1 Bft) 95,74 %
16.09.2021 05:36 12,9 C 12,2 C 11,7 C 93 % 1016,1 hPa 0,0 l/m 0 min 0 min 0 W/m 0,0 km/h (0 Bft) 95,74 %
16.09.2021 05:38 12,9 C 12,2 C 11,7 C 93 % 1016,1 hPa 0,0 l/m 0 min 0 min 0 W/m 3,2 km/h (1 Bft) 95,74 %
16.09.2021 05:40 12,9 C 12,2 C 11,7 C 93 % 1016,0 hPa 0,0 l/m 0 min 0 min 0 W/m 3,2 km/h (1 Bft) 93,62 %
16.09.2021 05:42 12,9 C 12,2 C 11,7 C 93 % 1016,0 hPa 0,0 l/m 0 min 0 min 0 W/m 6,4 km/h (2 Bft) 95,74 %
16.09.2021 05:44 12,8 C 12,2 C 11,7 C 93 % 1016,1 hPa 0,0 l/m 0 min 0 min 0 W/m 3,2 km/h (1 Bft) 97,83 %
16.09.2021 05:46 12,8 C 12,2 C 11,7 C 93 % 1016,1 hPa 0,0 l/m 0 min 0 min 0 W/m 3,2 km/h (1 Bft) 95,74 %
16.09.2021 05:48 12,8 C 12,2 C 11,7 C 93 % 1016,1 hPa 0,0 l/m 0 min 0 min 0 W/m 3,2 km/h (1 Bft) 95,74 %
16.09.2021 05:50 12,8 C 12,2 C 11,7 C 93 % 1016,1 hPa 0,0 l/m 0 min 0 min 0 W/m 9,7 km/h (2 Bft) 97,87 %
16.09.2021 05:52 12,8 C 12,2 C 11,7 C 93 % 1016,1 hPa 0,0 l/m 0 min 0 min 0 W/m 3,2 km/h (1 Bft) 97,87 %
16.09.2021 05:54 12,8 C 12,2 C 11,7 C 93 % 1016,1 hPa 0,0 l/m 0 min 0 min 0 W/m 3,2 km/h (1 Bft) 97,87 %
16.09.2021 05:56 12,8 C 12,2 C 11,7 C 93 % 1016,1 hPa 0,0 l/m 0 min 0 min 0 W/m 3,2 km/h (1 Bft) 97,83 %
16.09.2021 05:58 12,8 C 11,7 C 11,7 C 93 % 1016,1 hPa 0,0 l/m 0 min 0 min 0 W/m 3,2 km/h (1 Bft) 100,00 %
16.09.2021 06:00 12,8 C 11,7 C 11,7 C 94 % 1016,1 hPa 0,0 l/m 0 min 0 min 0 W/m 3,2 km/h (1 Bft) 100,00 %
16.09.2021 06:02 12,8 C 11,7 C 11,7 C 94 % 1016,0 hPa 0,0 l/m 0 min 0 min 0 W/m 3,2 km/h (1 Bft) 97,87 %
16.09.2021 06:04 12,7 C 11,7 C 11,7 C 94 % 1016,0 hPa 0,0 l/m 0 min 0 min 0 W/m 3,2 km/h (1 Bft) 100,00 %
16.09.2021 06:08 12,7 C 12,2 C 11,7 C 94 % 1016,0 hPa 0,0 l/m 0 min 0 min 0 W/m 6,4 km/h (2 Bft) 100,00 %
16.09.2021 06:10 12,7 C 11,7 C 11,7 C 94 % 1016,1 hPa 0,0 l/m 0 min 0 min 0 W/m 3,2 km/h (1 Bft) 100,00 %
16.09.2021 06:12 12,7 C 12,2 C 11,7 C 94 % 1016,1 hPa 0,0 l/m 0 min 0 min 0 W/m 6,4 km/h (2 Bft) 100,00 %
16.09.2021 06:14 12,7 C 12,2 C 11,7 C 94 % 1016,1 hPa 0,0 l/m 0 min 0 min 0 W/m 6,4 km/h (2 Bft) 97,87 %
16.09.2021 06:16 12,7 C 12,2 C 11,7 C 94 % 1016,1 hPa 0,0 l/m 0 min 0 min 0 W/m 3,2 km/h (1 Bft) 100,00 %
16.09.2021 06:18 12,7 C 12,2 C 11,7 C 94 % 1016,1 hPa 0,0 l/m 0 min 0 min 0 W/m 6,4 km/h (2 Bft) 100,00 %
16.09.2021 06:20 12,7 C 12,2 C 11,7 C 94 % 1016,1 hPa 0,0 l/m 0 min 0 min 0 W/m 6,4 km/h (2 Bft) 100,00 %
16.09.2021 06:22 12,7 C 12,2 C 11,7 C 94 % 1016,1 hPa 0,0 l/m 0 min 0 min 0 W/m 6,4 km/h (2 Bft) 100,00 %
16.09.2021 06:24 12,7 C 12,2 C 11,7 C 94 % 1016,0 hPa 0,0 l/m 0 min 0 min 0 W/m 3,2 km/h (1 Bft) 100,00 %
16.09.2021 06:26 12,7 C 11,7 C 11,7 C 94 % 1016,0 hPa 0,0 l/m 0 min 0 min 0 W/m 3,2 km/h (1 Bft) 100,00 %
16.09.2021 06:28 12,6 C 12,2 C 11,7 C 94 % 1016,1 hPa 0,0 l/m 0 min 0 min 0 W/m 6,4 km/h (2 Bft) 51,22 %
16.09.2021 06:30 12,6 C 11,7 C 11,7 C 94 % 1016,1 hPa 0,0 l/m 0 min 0 min 0 W/m 0,0 km/h (0 Bft) 97,83 %
16.09.2021 06:32 12,6 C 11,7 C 11,7 C 94 % 1016,1 hPa 0,0 l/m 0 min 0 min 0 W/m 0,0 km/h (0 Bft) 100,00 %
16.09.2021 06:34 12,6 C 11,7 C 11,7 C 94 % 1016,1 hPa 0,0 l/m 0 min 0 min 0 W/m 3,2 km/h (1 Bft) 100,00 %
16.09.2021 06:36 12,6 C 11,7 C 11,7 C 94 % 1016,1 hPa 0,0 l/m 0 min 0 min 0 W/m 3,2 km/h (1 Bft) 100,00 %
16.09.2021 06:38 12,6 C 11,7 C 11,7 C 94 % 1016,1 hPa 0,0 l/m 0 min 0 min 0 W/m 3,2 km/h (1 Bft) 97,87 %
16.09.2021 06:40 12,6 C 11,7 C 11,7 C 94 % 1016,1 hPa 0,0 l/m 0 min 0 min 0 W/m 3,2 km/h (1 Bft) 100,00 %
16.09.2021 06:42 12,6 C 11,7 C 11,7 C 94 % 1016,0 hPa 0,0 l/m 0 min 0 min 0 W/m 6,4 km/h (2 Bft) 100,00 %
16.09.2021 06:44 12,6 C 11,7 C 11,7 C 94 % 1016,0 hPa 0,0 l/m 0 min 0 min 0 W/m 3,2 km/h (1 Bft) 100,00 %
16.09.2021 06:46 12,6 C 11,7 C 11,7 C 94 % 1016,0 hPa 0,0 l/m 0 min 0 min 0 W/m 3,2 km/h (1 Bft) 100,00 %
16.09.2021 06:48 12,6 C 11,7 C 11,7 C 94 % 1016,1 hPa 0,0 l/m 0 min 0 min 0 W/m 3,2 km/h (1 Bft) 100,00 %
16.09.2021 06:50 12,6 C 11,7 C 11,7 C 94 % 1016,1 hPa 0,0 l/m 0 min 0 min 0 W/m 6,4 km/h (2 Bft) 97,87 %
16.09.2021 06:52 12,6 C 11,7 C 11,7 C 94 % 1016,1 hPa 0,0 l/m 0 min 0 min 0 W/m 6,4 km/h (2 Bft) 95,74 %
16.09.2021 06:54 12,6 C 11,7 C 11,7 C 94 % 1016,2 hPa 0,0 l/m 0 min 0 min 0 W/m 6,4 km/h (2 Bft) 97,83 %
16.09.2021 06:56 12,6 C 11,7 C 11,7 C 94 % 1016,2 hPa 0,0 l/m 0 min 0 min 0 W/m 3,2 km/h (1 Bft) 95,74 %
16.09.2021 06:58 12,6 C 11,7 C 11,7 C 94 % 1016,2 hPa 0,0 l/m 0 min 0 min 0 W/m 3,2 km/h (1 Bft) 93,62 %
16.09.2021 07:00 12,6 C 12,2 C 11,7 C 94 % 1016,2 hPa 0,0 l/m 0 min 0 min 0 W/m 9,7 km/h (2 Bft) 95,74 %
16.09.2021 07:02 12,6 C 12,2 C 11,7 C 94 % 1016,2 hPa 0,0 l/m 0 min 0 min 0 W/m 3,2 km/h (1 Bft) 93,62 %
16.09.2021 07:04 12,6 C 12,2 C 11,7 C 94 % 1016,2 hPa 0,0 l/m 0 min 0 min 0 W/m 6,4 km/h (2 Bft) 95,74 %
16.09.2021 07:06 12,6 C 12,2 C 11,7 C 94 % 1016,2 hPa 0,0 l/m 0 min 0 min 0 W/m 3,2 km/h (1 Bft) 93,48 %
16.09.2021 07:08 12,7 C 12,2 C 12,3 C 94 % 1016,2 hPa 0,0 l/m 0 min 0 min 0 W/m 6,4 km/h (2 Bft) 95,74 %
16.09.2021 07:10 12,7 C 12,2 C 11,7 C 94 % 1016,2 hPa 0,0 l/m 0 min 0 min 0 W/m 3,2 km/h (1 Bft) 95,74 %
16.09.2021 07:12 12,7 C 12,2 C 11,7 C 95 % 1016,2 hPa 0,0 l/m 0 min 0 min 0 W/m 6,4 km/h (2 Bft) 95,74 %
16.09.2021 07:14 12,8 C 12,2 C 12,3 C 95 % 1016,2 hPa 0,0 l/m 0 min 0 min 0 W/m 6,4 km/h (2 Bft) 95,74 %
16.09.2021 07:16 12,8 C 12,2 C 12,3 C 95 % 1016,3 hPa 0,0 l/m 0 min 0 min 0 W/m 3,2 km/h (1 Bft) 93,48 %
16.09.2021 07:18 12,8 C 12,2 C 12,3 C 95 % 1016,3 hPa 0,0 l/m 0 min 0 min 5 W/m 6,4 km/h (2 Bft) 95,74 %
16.09.2021 07:20 12,8 C 12,2 C 12,3 C 95 % 1016,3 hPa 0,0 l/m 0 min 0 min 5 W/m 6,4 km/h (2 Bft) 95,74 %
16.09.2021 07:22 12,8 C 12,2 C 12,3 C 95 % 1016,3 hPa 0,0 l/m 0 min 0 min 6 W/m 3,2 km/h (1 Bft) 95,74 %
16.09.2021 07:24 12,8 C 12,2 C 12,3 C 95 % 1016,4 hPa 0,0 l/m 0 min 0 min 7 W/m 3,2 km/h (1 Bft) 91,49 %
16.09.2021 07:26 12,9 C 12,2 C 12,3 C 95 % 1016,4 hPa 0,0 l/m 0 min 0 min 8 W/m 6,4 km/h (2 Bft) 97,87 %
16.09.2021 07:28 12,9 C 12,2 C 12,3 C 95 % 1016,4 hPa 0,0 l/m 0 min 0 min 9 W/m 3,2 km/h (1 Bft) 97,83 %
16.09.2021 07:30 12,9 C 12,2 C 12,3 C 95 % 1016,4 hPa 0,0 l/m 0 min 0 min 11 W/m 6,4 km/h (2 Bft) 97,87 %
16.09.2021 07:32 12,9 C 12,2 C 12,3 C 95 % 1016,4 hPa 0,0 l/m 0 min 0 min 12 W/m 6,4 km/h (2 Bft) 97,87 %
16.09.2021 07:34 12,9 C 12,8 C 12,3 C 95 % 1016,4 hPa 0,0 l/m 0 min 0 min 13 W/m 6,4 km/h (2 Bft) 95,74 %
16.09.2021 07:36 13,0 C 12,8 C 12,3 C 95 % 1016,5 hPa 0,0 l/m 0 min 0 min 14 W/m 6,4 km/h (2 Bft) 97,96 %
16.09.2021 07:38 13,0 C 12,8 C 12,3 C 95 % 1016,5 hPa 0,0 l/m 0 min 0 min 14 W/m 3,2 km/h (1 Bft) 97,87 %
16.09.2021 07:40 13,0 C 12,8 C 12,3 C 95 % 1016,5 hPa 0,0 l/m 0 min 0 min 16 W/m 6,4 km/h (2 Bft) 95,65 %
16.09.2021 07:42 13,0 C 12,8 C 12,3 C 95 % 1016,4 hPa 0,0 l/m 0 min 0 min 17 W/m 3,2 km/h (1 Bft) 95,74 %
16.09.2021 07:44 13,0 C 12,8 C 12,3 C 95 % 1016,4 hPa 0,0 l/m 0 min 0 min 18 W/m 12,9 km/h (3 Bft) 95,74 %
16.09.2021 07:46 13,1 C 12,8 C 12,3 C 95 % 1016,4 hPa 0,0 l/m 0 min 0 min 18 W/m 6,4 km/h (2 Bft) 93,62 %
16.09.2021 07:48 13,1 C 12,8 C 12,3 C 95 % 1016,5 hPa 0,0 l/m 0 min 0 min 19 W/m 9,7 km/h (2 Bft) 97,87 %
16.09.2021 07:50 13,1 C 12,8 C 12,3 C 95 % 1016,5 hPa 0,0 l/m 0 min 0 min 22 W/m 6,4 km/h (2 Bft) 97,87 %
16.09.2021 07:52 13,1 C 12,8 C 12,3 C 95 % 1016,6 hPa 0,0 l/m 0 min 0 min 24 W/m 6,4 km/h (2 Bft) 97,83 %
16.09.2021 07:54 13,2 C 12,8 C 12,8 C 95 % 1016,5 hPa 0,0 l/m 0 min 0 min 26 W/m 9,7 km/h (2 Bft) 97,87 %
16.09.2021 07:56 13,2 C 12,8 C 12,8 C 95 % 1016,5 hPa 0,0 l/m 0 min 0 min 29 W/m 3,2 km/h (1 Bft) 95,74 %
16.09.2021 07:58 13,2 C 12,8 C 12,8 C 95 % 1016,6 hPa 0,0 l/m 0 min 0 min 31 W/m 3,2 km/h (1 Bft) 97,87 %
16.09.2021 08:00 13,2 C 12,8 C 12,8 C 95 % 1016,6 hPa 0,0 l/m 0 min 0 min 32 W/m 6,4 km/h (2 Bft) 97,87 %
16.09.2021 08:02 13,3 C 12,8 C 12,8 C 95 % 1016,7 hPa 0,0 l/m 0 min 0 min 32 W/m 6,4 km/h (2 Bft) 95,83 %
16.09.2021 08:04 13,3 C 12,8 C 12,8 C 95 % 1016,7 hPa 0,0 l/m 0 min 0 min 32 W/m 6,4 km/h (2 Bft) 95,65 %
16.09.2021 08:06 13,3 C 12,8 C 12,8 C 95 % 1016,7 hPa 0,0 l/m 0 min 0 min 33 W/m 6,4 km/h (2 Bft) 97,87 %
16.09.2021 08:08 13,3 C 12,8 C 12,8 C 95 % 1016,6 hPa 0,0 l/m 0 min 0 min 33 W/m 6,4 km/h (2 Bft) 97,87 %
16.09.2021 08:10 13,4 C 12,8 C 12,8 C 95 % 1016,6 hPa 0,0 l/m 0 min 0 min 36 W/m 6,4 km/h (2 Bft) 97,87 %
16.09.2021 08:12 13,4 C 13,3 C 12,8 C 95 % 1016,6 hPa 0,0 l/m 0 min 0 min 38 W/m 3,2 km/h (1 Bft) 97,87 %
16.09.2021 08:14 13,4 C 13,3 C 12,8 C 95 % 1016,6 hPa 0,0 l/m 0 min 0 min 41 W/m 6,4 km/h (2 Bft) 95,65 %
16.09.2021 08:16 13,4 C 13,3 C 12,8 C 95 % 1016,6 hPa 0,0 l/m 0 min 0 min 43 W/m 6,4 km/h (2 Bft) 95,74 %
16.09.2021 08:18 13,4 C 13,3 C 12,8 C 95 % 1016,6 hPa 0,0 l/m 0 min 0 min 46 W/m 16,1 km/h (3 Bft) 97,87 %
16.09.2021 08:20 13,5 C 13,3 C 12,8 C 95 % 1016,6 hPa 0,0 l/m 0 min 0 min 51 W/m 6,4 km/h (2 Bft) 97,87 %
16.09.2021 08:22 13,5 C 13,3 C 12,8 C 95 % 1016,6 hPa 0,0 l/m 0 min 0 min 54 W/m 6,4 km/h (2 Bft) 97,87 %
16.09.2021 08:24 13,5 C 13,3 C 13,4 C 95 % 1016,7 hPa 0,0 l/m 0 min 0 min 57 W/m 6,4 km/h (2 Bft) 95,74 %
16.09.2021 08:26 13,5 C 13,3 C 13,4 C 95 % 1016,6 hPa 0,0 l/m 0 min 0 min 60 W/m 3,2 km/h (1 Bft) 100,00 %
16.09.2021 08:28 13,6 C 13,3 C 13,4 C 95 % 1016,6 hPa 0,0 l/m 0 min 0 min 65 W/m 6,4 km/h (2 Bft) 100,00 %
16.09.2021 08:30 13,6 C 13,3 C 13,4 C 95 % 1016,7 hPa 0,0 l/m 0 min 0 min 69 W/m 3,2 km/h (1 Bft) 100,00 %
16.09.2021 08:32 13,6 C 13,3 C 13,4 C 95 % 1016,7 hPa 0,0 l/m 0 min 0 min 65 W/m 9,7 km/h (2 Bft) 95,74 %
16.09.2021 08:34 13,7 C 13,3 C 13,4 C 95 % 1016,7 hPa 0,0 l/m 0 min 0 min 66 W/m 9,7 km/h (2 Bft) 95,74 %
16.09.2021 08:36 13,7 C 13,9 C 13,4 C 95 % 1016,7 hPa 0,0 l/m 0 min 0 min 68 W/m 6,4 km/h (2 Bft) 95,83 %
16.09.2021 08:38 13,7 C 13,9 C 13,4 C 95 % 1016,7 hPa 0,0 l/m 0 min 0 min 71 W/m 3,2 km/h (1 Bft) 100,00 %
16.09.2021 08:40 13,8 C 13,9 C 13,4 C 95 % 1016,7 hPa 0,0 l/m 0 min 0 min 77 W/m 6,4 km/h (2 Bft) 100,00 %
16.09.2021 08:42 13,8 C 13,9 C 13,4 C 95 % 1016,7 hPa 0,0 l/m 0 min 0 min 78 W/m 6,4 km/h (2 Bft) 100,00 %
16.09.2021 08:44 13,8 C 13,9 C 13,4 C 94 % 1016,8 hPa 0,0 l/m 0 min 0 min 78 W/m 3,2 km/h (1 Bft) 97,87 %
16.09.2021 08:46 13,8 C 13,9 C 13,4 C 95 % 1016,7 hPa 0,0 l/m 0 min 0 min 76 W/m 6,4 km/h (2 Bft) 95,74 %
16.09.2021 08:48 13,9 C 13,9 C 13,4 C 95 % 1016,8 hPa 0,0 l/m 0 min 0 min 80 W/m 3,2 km/h (1 Bft) 95,74 %
16.09.2021 08:50 13,9 C 13,9 C 13,4 C 95 % 1016,8 hPa 0,0 l/m 0 min 0 min 82 W/m 3,2 km/h (1 Bft) 97,83 %
16.09.2021 08:52 14,0 C 13,9 C 13,4 C 95 % 1016,8 hPa 0,0 l/m 0 min 0 min 84 W/m 3,2 km/h (1 Bft) 97,87 %
16.09.2021 08:54 14,0 C 13,9 C 13,9 C 95 % 1016,8 hPa 0,0 l/m 0 min 0 min 86 W/m 3,2 km/h (1 Bft) 97,87 %
16.09.2021 08:56 14,0 C 13,9 C 13,9 C 94 % 1016,8 hPa 0,0 l/m 0 min 0 min 90 W/m 3,2 km/h (1 Bft) 97,87 %
16.09.2021 08:58 14,1 C 14,4 C 13,9 C 94 % 1016,8 hPa 0,0 l/m 0 min 0 min 94 W/m 3,2 km/h (1 Bft) 97,87 %
16.09.2021 09:00 14,1 C 14,4 C 13,9 C 94 % 1016,8 hPa 0,0 l/m 0 min 0 min 108 W/m 6,4 km/h (2 Bft) 97,87 %
16.09.2021 09:02 14,2 C 14,4 C 13,9 C 95 % 1016,8 hPa 0,0 l/m 0 min 0 min 116 W/m 6,4 km/h (2 Bft) 95,65 %
16.09.2021 09:04 14,2 C 14,4 C 13,9 C 94 % 1016,8 hPa 0,0 l/m 0 min 0 min 117 W/m 6,4 km/h (2 Bft) 97,87 %
16.09.2021 09:06 14,2 C 14,4 C 13,9 C 94 % 1016,8 hPa 0,0 l/m 0 min 0 min 122 W/m 6,4 km/h (2 Bft) 97,87 %
16.09.2021 09:08 14,2 C 14,4 C 13,9 C 94 % 1016,7 hPa 0,0 l/m 0 min 0 min 122 W/m 6,4 km/h (2 Bft) 97,87 %
16.09.2021 09:10 14,3 C 14,4 C 13,9 C 94 % 1016,8 hPa 0,0 l/m 0 min 0 min 122 W/m 6,4 km/h (2 Bft) 97,87 %
16.09.2021 09:12 14,4 C 15,0 C 14,5 C 94 % 1016,8 hPa 0,0 l/m 0 min 0 min 125 W/m 6,4 km/h (2 Bft) 95,74 %
16.09.2021 09:14 14,4 C 15,0 C 14,5 C 94 % 1016,8 hPa 0,0 l/m 0 min 0 min 126 W/m 6,4 km/h (2 Bft) 97,87 %
16.09.2021 09:16 14,5 C 15,0 C 14,5 C 94 % 1016,9 hPa 0,0 l/m 0 min 0 min 127 W/m 12,9 km/h (3 Bft) 97,83 %
16.09.2021 09:18 14,5 C 15,0 C 14,5 C 94 % 1016,9 hPa 0,0 l/m 0 min 0 min 122 W/m 6,4 km/h (2 Bft) 97,87 %
16.09.2021 09:20 14,6 C 15,0 C 14,5 C 94 % 1016,9 hPa 0,0 l/m 0 min 0 min 127 W/m 9,7 km/h (2 Bft) 97,87 %
16.09.2021 09:22 14,6 C 15,0 C 14,5 C 94 % 1016,9 hPa 0,0 l/m 0 min 0 min 128 W/m 12,9 km/h (3 Bft) 100,00 %
16.09.2021 09:24 14,6 C 15,0 C 14,5 C 94 % 1016,9 hPa 0,0 l/m 0 min 0 min 118 W/m 9,7 km/h (2 Bft) 100,00 %
16.09.2021 09:26 14,7 C 15,0 C 14,5 C 93 % 1017,0 hPa 0,0 l/m 0 min 0 min 106 W/m 12,9 km/h (3 Bft) 97,83 %
16.09.2021 09:28 14,8 C 15,0 C 14,5 C 93 % 1017,0 hPa 0,0 l/m 0 min 0 min 108 W/m 6,4 km/h (2 Bft) 97,87 %
16.09.2021 09:30 14,8 C 15,0 C 14,5 C 93 % 1017,0 hPa 0,0 l/m 0 min 0 min 121 W/m 6,4 km/h (2 Bft) 95,74 %
16.09.2021 09:32 14,8 C 15,0 C 14,5 C 93 % 1017,0 hPa 0,0 l/m 0 min 0 min 139 W/m 3,2 km/h (1 Bft) 97,87 %
16.09.2021 09:34 14,9 C 15,0 C 14,5 C 93 % 1017,0 hPa 0,0 l/m 0 min 0 min 138 W/m 6,4 km/h (2 Bft) 91,49 %
16.09.2021 09:36 14,9 C 15,0 C 14,5 C 93 % 1017,0 hPa 0,0 l/m 0 min 0 min 130 W/m 9,7 km/h (2 Bft) 100,00 %
16.09.2021 09:38 14,9 C 15,0 C 14,5 C 93 % 1017,0 hPa 0,0 l/m 0 min 0 min 127 W/m 12,9 km/h (3 Bft) 100,00 %
16.09.2021 09:40 15,0 C 15,0 C 14,5 C 92 % 1017,0 hPa 0,0 l/m 0 min 0 min 116 W/m 3,2 km/h (1 Bft) 100,00 %
16.09.2021 09:42 15,0 C 15,6 C 14,5 C 92 % 1017,0 hPa 0,0 l/m 0 min 0 min 117 W/m 6,4 km/h (2 Bft) 100,00 %
16.09.2021 09:44 15,0 C 15,0 C 14,5 C 92 % 1016,9 hPa 0,0 l/m 0 min 0 min 133 W/m 9,7 km/h (2 Bft) 100,00 %
16.09.2021 09:46 15,0 C 15,6 C 14,5 C 92 % 1016,9 hPa 0,0 l/m 0 min 0 min 145 W/m 9,7 km/h (2 Bft) 89,36 %
16.09.2021 09:48 15,1 C 15,6 C 15,0 C 92 % 1016,9 hPa 0,0 l/m 0 min 0 min 168 W/m 6,4 km/h (2 Bft) 82,98 %
16.09.2021 09:50 15,2 C 15,6 C 15,0 C 92 % 1017,0 hPa 0,0 l/m 0 min 0 min 141 W/m 12,9 km/h (3 Bft) 80,00 %
16.09.2021 09:52 15,2 C 15,6 C 15,0 C 91 % 1017,0 hPa 0,0 l/m 0 min 0 min 139 W/m 16,1 km/h (3 Bft) 81,03 %
16.09.2021 09:54 15,3 C 15,6 C 15,0 C 91 % 1017,1 hPa 0,0 l/m 0 min 0 min 149 W/m 12,9 km/h (3 Bft) 89,36 %
16.09.2021 09:56 15,3 C 15,6 C 15,0 C 91 % 1017,1 hPa 0,0 l/m 0 min 0 min 164 W/m 12,9 km/h (3 Bft) 95,74 %
16.09.2021 09:58 15,3 C 15,6 C 15,0 C 91 % 1017,1 hPa 0,0 l/m 0 min 0 min 178 W/m 9,7 km/h (2 Bft) 80,85 %
16.09.2021 10:00 15,4 C 15,6 C 15,0 C 90 % 1017,2 hPa 0,0 l/m 0 min 0 min 185 W/m 12,9 km/h (3 Bft) 97,87 %
16.09.2021 10:02 15,4 C 15,6 C 15,0 C 90 % 1017,1 hPa 0,0 l/m 0 min 0 min 199 W/m 12,9 km/h (3 Bft) 93,48 %
16.09.2021 10:04 15,4 C 15,6 C 15,0 C 90 % 1017,2 hPa 0,0 l/m 2 min 0 min 234 W/m 12,9 km/h (3 Bft) 89,36 %
16.09.2021 10:06 15,5 C 16,1 C 15,0 C 90 % 1017,2 hPa 0,0 l/m 0 min 0 min 199 W/m 16,1 km/h (3 Bft) 91,49 %
16.09.2021 10:08 15,5 C 16,1 C 15,0 C 90 % 1017,2 hPa 0,0 l/m 0 min 0 min 201 W/m 9,7 km/h (2 Bft) 95,83 %
16.09.2021 10:10 15,5 C 16,1 C 15,0 C 90 % 1017,2 hPa 0,0 l/m 2 min 0 min 240 W/m 12,9 km/h (3 Bft) 94,29 %
16.09.2021 10:12 15,6 C 16,1 C 15,0 C 89 % 1017,1 hPa 0,0 l/m 0 min 0 min 212 W/m 12,9 km/h (3 Bft) 95,74 %
16.09.2021 10:14 15,6 C 16,1 C 15,6 C 89 % 1017,2 hPa 0,0 l/m 2 min 0 min 234 W/m 9,7 km/h (2 Bft) 95,74 %
16.09.2021 10:16 15,7 C 16,1 C 15,6 C 89 % 1017,2 hPa 0,0 l/m 0 min 0 min 205 W/m 9,7 km/h (2 Bft) 95,65 %
16.09.2021 10:18 15,8 C 16,1 C 15,6 C 89 % 1017,2 hPa 0,0 l/m 0 min 0 min 197 W/m 12,9 km/h (3 Bft) 97,87 %
16.09.2021 10:20 15,8 C 16,1 C 15,6 C 89 % 1017,2 hPa 0,0 l/m 0 min 0 min 183 W/m 9,7 km/h (2 Bft) 93,62 %
16.09.2021 10:22 15,9 C 16,1 C 15,6 C 89 % 1017,2 hPa 0,0 l/m 0 min 0 min 169 W/m 12,9 km/h (3 Bft) 89,36 %
16.09.2021 10:24 15,9 C 16,7 C 15,6 C 89 % 1017,2 hPa 0,0 l/m 0 min 0 min 157 W/m 6,4 km/h (2 Bft) 97,87 %
16.09.2021 10:26 16,0 C 16,1 C 15,6 C 89 % 1017,2 hPa 0,0 l/m 0 min 0 min 151 W/m 6,4 km/h (2 Bft) 95,74 %
16.09.2021 10:28 16,0 C 16,7 C 15,6 C 89 % 1017,2 hPa 0,0 l/m 0 min 0 min 150 W/m 3,2 km/h (1 Bft) 97,83 %
16.09.2021 10:30 16,0 C 16,7 C 15,6 C 88 % 1017,2 hPa 0,0 l/m 0 min 0 min 172 W/m 9,7 km/h (2 Bft) 95,74 %
16.09.2021 10:32 16,0 C 16,7 C 15,6 C 88 % 1017,3 hPa 0,0 l/m 0 min 0 min 185 W/m 6,4 km/h (2 Bft) 100,00 %
16.09.2021 10:34 16,1 C 16,7 C 15,6 C 88 % 1017,3 hPa 0,0 l/m 0 min 0 min 192 W/m 9,7 km/h (2 Bft) 97,87 %
16.09.2021 10:36 16,1 C 16,7 C 15,6 C 87 % 1017,3 hPa 0,0 l/m 0 min 0 min 170 W/m 12,9 km/h (3 Bft) 97,87 %
16.09.2021 10:38 16,2 C 16,7 C 15,6 C 87 % 1017,3 hPa 0,0 l/m 0 min 0 min 139 W/m 12,9 km/h (3 Bft) 95,74 %
16.09.2021 10:40 16,3 C 16,7 C 15,6 C 87 % 1017,2 hPa 0,0 l/m 0 min 0 min 171 W/m 12,9 km/h (3 Bft) 97,83 %
16.09.2021 10:42 16,3 C 16,7 C 15,6 C 86 % 1017,2 hPa 0,0 l/m 0 min 0 min 236 W/m 12,9 km/h (3 Bft) 100,00 %
16.09.2021 10:44 16,4 C 16,7 C 15,6 C 86 % 1017,2 hPa 0,0 l/m 0 min 0 min 183 W/m 12,9 km/h (3 Bft) 97,87 %
16.09.2021 10:46 16,4 C 16,7 C 15,6 C 86 % 1017,1 hPa 0,0 l/m 0 min 0 min 105 W/m 12,9 km/h (3 Bft) 93,62 %
16.09.2021 10:48 16,5 C 16,7 C 15,6 C 86 % 1017,2 hPa 0,0 l/m 0 min 0 min 97 W/m 9,7 km/h (2 Bft) 95,74 %
16.09.2021 10:50 16,5 C 16,7 C 15,6 C 85 % 1017,2 hPa 0,0 l/m 0 min 0 min 114 W/m 12,9 km/h (3 Bft) 95,74 %
16.09.2021 10:52 16,6 C 17,2 C 16,1 C 85 % 1017,2 hPa 0,0 l/m 0 min 0 min 158 W/m 19,3 km/h (3 Bft) 95,65 %
16.09.2021 10:54 16,7 C 17,2 C 16,1 C 85 % 1017,1 hPa 0,0 l/m 0 min 0 min 248 W/m 12,9 km/h (3 Bft) 95,74 %
16.09.2021 10:56 16,9 C 17,2 C 16,1 C 85 % 1017,2 hPa 0,0 l/m 0 min 0 min 214 W/m 12,9 km/h (3 Bft) 95,74 %
16.09.2021 10:58 17,0 C 17,2 C 16,1 C 84 % 1017,2 hPa 0,0 l/m 0 min 0 min 119 W/m 9,7 km/h (2 Bft) 95,74 %
16.09.2021 11:00 17,0 C 17,8 C 16,1 C 84 % 1017,2 hPa 0,0 l/m 0 min 0 min 100 W/m 9,7 km/h (2 Bft) 95,74 %
16.09.2021 11:02 17,1 C 17,8 C 16,1 C 84 % 1017,2 hPa 0,0 l/m 0 min 0 min 100 W/m 6,4 km/h (2 Bft) 95,74 %
16.09.2021 11:04 17,1 C 17,8 C 16,1 C 84 % 1017,2 hPa 0,0 l/m 0 min 0 min 117 W/m 6,4 km/h (2 Bft) 95,65 %
16.09.2021 11:06 17,1 C 17,8 C 16,1 C 84 % 1017,2 hPa 0,0 l/m 0 min 0 min 180 W/m 16,1 km/h (3 Bft) 91,49 %
16.09.2021 11:08 17,1 C 17,8 C 16,1 C 84 % 1017,2 hPa 0,0 l/m 0 min 0 min 183 W/m 6,4 km/h (2 Bft) 96,61 %
16.09.2021 11:10 17,2 C 17,8 C 16,1 C 84 % 1017,2 hPa 0,0 l/m 2 min 0 min 547 W/m 6,4 km/h (2 Bft) 94,29 %
16.09.2021 11:12 17,3 C 18,3 C 16,7 C 84 % 1017,2 hPa 0,0 l/m 2 min 0 min 634 W/m 6,4 km/h (2 Bft) 95,74 %
16.09.2021 11:14 17,4 C 18,9 C 16,7 C 83 % 1017,2 hPa 0,0 l/m 2 min 0 min 649 W/m 9,7 km/h (2 Bft) 95,74 %
16.09.2021 11:16 17,5 C 18,9 C 16,7 C 83 % 1017,2 hPa 0,0 l/m 2 min 0 min 284 W/m 16,1 km/h (3 Bft) 95,65 %
16.09.2021 11:18 17,5 C 18,3 C 16,7 C 82 % 1017,3 hPa 0,0 l/m 0 min 0 min 207 W/m 9,7 km/h (2 Bft) 95,74 %
16.09.2021 11:20 17,5 C 18,3 C 16,7 C 82 % 1017,3 hPa 0,0 l/m 0 min 0 min 218 W/m 16,1 km/h (3 Bft) 95,74 %
16.09.2021 11:22 17,5 C 17,8 C 16,7 C 82 % 1017,2 hPa 0,0 l/m 0 min 0 min 194 W/m 12,9 km/h (3 Bft) 93,62 %
16.09.2021 11:24 17,5 C 17,8 C 16,7 C 81 % 1017,3 hPa 0,0 l/m 0 min 0 min 181 W/m 6,4 km/h (2 Bft) 95,74 %
16.09.2021 11:26 17,5 C 17,8 C 16,7 C 81 % 1017,4 hPa 0,0 l/m 0 min 0 min 139 W/m 12,9 km/h (3 Bft) 97,87 %
16.09.2021 11:28 17,4 C 17,8 C 16,7 C 81 % 1017,3 hPa 0,0 l/m 0 min 0 min 239 W/m 12,9 km/h (3 Bft) 97,83 %
16.09.2021 11:30 17,4 C 17,8 C 16,7 C 80 % 1017,4 hPa 0,0 l/m 2 min 0 min 357 W/m 16,1 km/h (3 Bft) 97,87 %
16.09.2021 11:32 17,3 C 17,8 C 16,7 C 80 % 1017,4 hPa 0,0 l/m 0 min 0 min 149 W/m 9,7 km/h (2 Bft) 97,87 %
16.09.2021 11:34 17,4 C 18,3 C 17,3 C 80 % 1017,4 hPa 0,0 l/m 2 min 0 min 594 W/m 12,9 km/h (3 Bft) 95,74 %
16.09.2021 11:36 17,5 C 18,9 C 17,3 C 80 % 1017,4 hPa 0,0 l/m 2 min 0 min 742 W/m 6,4 km/h (2 Bft) 97,87 %
16.09.2021 11:38 17,6 C 20,0 C 18,4 C 81 % 1017,4 hPa 0,0 l/m 2 min 0 min 811 W/m 12,9 km/h (3 Bft) 95,74 %
16.09.2021 11:40 17,8 C 20,6 C 18,9 C 81 % 1017,4 hPa 0,0 l/m 2 min 0 min 752 W/m 6,4 km/h (2 Bft) 95,65 %
16.09.2021 11:42 17,9 C 19,4 C 18,4 C 80 % 1017,5 hPa 0,0 l/m 2 min 0 min 420 W/m 12,9 km/h (3 Bft) 97,87 %
16.09.2021 11:44 17,9 C 19,4 C 18,9 C 79 % 1017,5 hPa 0,0 l/m 0 min 0 min 188 W/m 16,1 km/h (3 Bft) 97,87 %
16.09.2021 11:46 17,9 C 19,4 C 19,5 C 79 % 1017,5 hPa 0,0 l/m 0 min 0 min 188 W/m 12,9 km/h (3 Bft) 97,87 %
16.09.2021 11:48 17,9 C 19,4 C 20,0 C 79 % 1017,5 hPa 0,0 l/m 2 min 0 min 791 W/m 16,1 km/h (3 Bft) 97,87 %
16.09.2021 11:50 17,9 C 18,9 C 19,5 C 79 % 1017,5 hPa 0,0 l/m 2 min 0 min 410 W/m 16,1 km/h (3 Bft) 100,00 %
16.09.2021 11:52 17,9 C 18,9 C 18,9 C 79 % 1017,4 hPa 0,0 l/m 2 min 0 min 299 W/m 12,9 km/h (3 Bft) 100,00 %
16.09.2021 11:54 18,0 C 19,4 C 20,0 C 80 % 1017,5 hPa 0,0 l/m 2 min 0 min 304 W/m 12,9 km/h (3 Bft) 100,00 %
16.09.2021 11:56 18,0 C 18,9 C 18,9 C 79 % 1017,5 hPa 0,0 l/m 0 min 0 min 251 W/m 16,1 km/h (3 Bft) 100,00 %
16.09.2021 11:58 18,0 C 18,9 C 18,9 C 79 % 1017,5 hPa 0,0 l/m 0 min 0 min 240 W/m 12,9 km/h (3 Bft) 100,00 %
16.09.2021 12:00 18,0 C 18,9 C 18,9 C 78 % 1017,6 hPa 0,0 l/m 2 min 0 min 795 W/m 12,9 km/h (3 Bft) 100,00 %
16.09.2021 12:02 18,0 C 18,9 C 18,4 C 78 % 1017,5 hPa 0,0 l/m 2 min 0 min 344 W/m 12,9 km/h (3 Bft) 100,00 %
16.09.2021 12:04 17,9 C 18,3 C 17,8 C 78 % 1017,5 hPa 0,0 l/m 0 min 0 min 218 W/m 9,7 km/h (2 Bft) 97,83 %
16.09.2021 12:08 17,9 C 18,3 C 17,8 C 79 % 1017,4 hPa 0,0 l/m 0 min 0 min 294 W/m 12,9 km/h (3 Bft) 100,00 %
16.09.2021 12:10 17,9 C 18,3 C 17,3 C 79 % 1017,5 hPa 0,0 l/m 0 min 0 min 265 W/m 12,9 km/h (3 Bft) 100,00 %
16.09.2021 12:12 17,9 C 18,3 C 17,3 C 79 % 1017,4 hPa 0,0 l/m 0 min 0 min 249 W/m 9,7 km/h (2 Bft) 100,00 %
16.09.2021 12:14 18,0 C 18,3 C 17,3 C 79 % 1017,4 hPa 0,0 l/m 0 min 0 min 218 W/m 9,7 km/h (2 Bft) 100,00 %
16.09.2021 12:16 17,9 C 18,3 C 17,3 C 79 % 1017,4 hPa 0,0 l/m 0 min 0 min 150 W/m 12,9 km/h (3 Bft) 100,00 %
16.09.2021 12:18 17,9 C 18,3 C 16,7 C 79 % 1017,4 hPa 0,0 l/m 0 min 0 min 146 W/m 9,7 km/h (2 Bft) 100,00 %
16.09.2021 12:20 17,9 C 18,3 C 17,3 C 79 % 1017,4 hPa 0,0 l/m 2 min 0 min 389 W/m 12,9 km/h (3 Bft) 97,87 %
16.09.2021 12:22 17,9 C 18,3 C 17,3 C 79 % 1017,4 hPa 0,0 l/m 2 min 0 min 470 W/m 9,7 km/h (2 Bft) 97,87 %
16.09.2021 12:24 18,0 C 18,3 C 17,3 C 79 % 1017,4 hPa 0,0 l/m 0 min 0 min 189 W/m 12,9 km/h (3 Bft) 97,87 %
16.09.2021 12:26 18,0 C 18,3 C 16,7 C 78 % 1017,4 hPa 0,0 l/m 0 min 0 min 165 W/m 12,9 km/h (3 Bft) 97,83 %
16.09.2021 12:28 18,0 C 18,9 C 17,3 C 78 % 1017,4 hPa 0,0 l/m 0 min 0 min 172 W/m 6,4 km/h (2 Bft) 97,87 %
16.09.2021 12:30 18,1 C 18,9 C 17,3 C 78 % 1017,4 hPa 0,0 l/m 0 min 0 min 261 W/m 6,4 km/h (2 Bft) 97,87 %
16.09.2021 12:32 18,1 C 18,3 C 17,3 C 78 % 1017,5 hPa 0,0 l/m 0 min 0 min 212 W/m 9,7 km/h (2 Bft) 95,74 %
16.09.2021 12:34 18,1 C 18,3 C 17,3 C 78 % 1017,5 hPa 0,0 l/m 0 min 0 min 170 W/m 12,9 km/h (3 Bft) 95,74 %
16.09.2021 12:36 18,1 C 18,3 C 16,7 C 77 % 1017,4 hPa 0,0 l/m 0 min 0 min 165 W/m 12,9 km/h (3 Bft) 95,74 %
16.09.2021 12:38 18,1 C 18,3 C 16,7 C 78 % 1017,4 hPa 0,0 l/m 0 min 0 min 143 W/m 12,9 km/h (3 Bft) 95,65 %
16.09.2021 12:40 18,0 C 17,8 C 16,7 C 77 % 1017,4 hPa 0,0 l/m 0 min 0 min 139 W/m 12,9 km/h (3 Bft) 97,87 %
16.09.2021 12:42 18,0 C 17,8 C 16,1 C 77 % 1017,4 hPa 0,0 l/m 0 min 0 min 176 W/m 12,9 km/h (3 Bft) 95,74 %
16.09.2021 12:44 18,0 C 18,3 C 16,7 C 77 % 1017,4 hPa 0,0 l/m 0 min 0 min 237 W/m 6,4 km/h (2 Bft) 97,87 %
16.09.2021 12:46 18,0 C 18,3 C 16,7 C 77 % 1017,4 hPa 0,0 l/m 0 min 0 min 292 W/m 6,4 km/h (2 Bft) 97,87 %
16.09.2021 12:48 18,1 C 18,9 C 17,3 C 78 % 1017,4 hPa 0,0 l/m 2 min 0 min 388 W/m 6,4 km/h (2 Bft) 97,87 %
16.09.2021 12:50 18,3 C 18,9 C 17,3 C 77 % 1017,3 hPa 0,0 l/m 2 min 0 min 322 W/m 6,4 km/h (2 Bft) 95,65 %
16.09.2021 12:52 18,4 C 18,9 C 17,3 C 76 % 1017,3 hPa 0,0 l/m 0 min 0 min 268 W/m 12,9 km/h (3 Bft) 97,87 %
16.09.2021 12:54 18,4 C 18,9 C 17,3 C 76 % 1017,3 hPa 0,0 l/m 0 min 0 min 230 W/m 19,3 km/h (3 Bft) 97,87 %
16.09.2021 12:56 18,5 C 18,9 C 17,3 C 77 % 1017,4 hPa 0,0 l/m 0 min 0 min 215 W/m 16,1 km/h (3 Bft) 95,74 %
16.09.2021 12:58 18,4 C 18,3 C 16,7 C 77 % 1017,4 hPa 0,0 l/m 0 min 0 min 223 W/m 9,7 km/h (2 Bft) 95,74 %
16.09.2021 13:00 18,4 C 18,3 C 16,7 C 77 % 1017,3 hPa 0,0 l/m 0 min 0 min 246 W/m 12,9 km/h (3 Bft) 95,74 %
16.09.2021 13:02 18,3 C 18,3 C 16,7 C 77 % 1017,4 hPa 0,0 l/m 0 min 0 min 236 W/m 16,1 km/h (3 Bft) 97,56 %
16.09.2021 13:04 18,3 C 18,3 C 16,7 C 77 % 1017,4 hPa 0,0 l/m 0 min 0 min 198 W/m 12,9 km/h (3 Bft) 97,96 %
16.09.2021 13:06 18,3 C 18,3 C 16,7 C 77 % 1017,5 hPa 0,0 l/m 0 min 0 min 201 W/m 12,9 km/h (3 Bft) 95,74 %
16.09.2021 13:08 18,3 C 18,3 C 16,7 C 77 % 1017,4 hPa 0,0 l/m 0 min 0 min 257 W/m 12,9 km/h (3 Bft) 97,87 %
16.09.2021 13:10 18,4 C 18,9 C 16,7 C 75 % 1017,4 hPa 0,0 l/m 0 min 0 min 273 W/m 19,3 km/h (3 Bft) 95,74 %
16.09.2021 13:12 18,4 C 18,9 C 17,3 C 74 % 1017,4 hPa 0,0 l/m 0 min 0 min 252 W/m 9,7 km/h (2 Bft) 97,87 %
16.09.2021 13:14 18,5 C 18,9 C 17,3 C 75 % 1017,4 hPa 0,0 l/m 0 min 0 min 240 W/m 6,4 km/h (2 Bft) 97,87 %
16.09.2021 13:16 18,5 C 18,9 C 17,3 C 76 % 1017,4 hPa 0,0 l/m 0 min 0 min 224 W/m 16,1 km/h (3 Bft) 97,83 %
16.09.2021 13:18 18,5 C 18,9 C 16,7 C 77 % 1017,4 hPa 0,0 l/m 0 min 0 min 226 W/m 6,4 km/h (2 Bft) 93,62 %
16.09.2021 13:20 18,5 C 18,9 C 16,7 C 77 % 1017,4 hPa 0,0 l/m 0 min 0 min 237 W/m 12,9 km/h (3 Bft) 91,49 %
16.09.2021 13:22 18,5 C 18,9 C 16,7 C 77 % 1017,4 hPa 0,0 l/m 0 min 0 min 249 W/m 6,4 km/h (2 Bft) 91,49 %
16.09.2021 13:24 18,5 C 18,9 C 17,3 C 77 % 1017,4 hPa 0,0 l/m 0 min 0 min 264 W/m 6,4 km/h (2 Bft) 85,11 %
16.09.2021 13:26 18,5 C 18,9 C 17,3 C 76 % 1017,4 hPa 0,0 l/m 0 min 0 min 296 W/m 6,4 km/h (2 Bft) 95,74 %
16.09.2021 13:28 18,6 C 18,9 C 17,3 C 76 % 1017,4 hPa 0,0 l/m 0 min 0 min 322 W/m 9,7 km/h (2 Bft) 93,48 %
16.09.2021 13:30 18,6 C 18,9 C 17,3 C 76 % 1017,4 hPa 0,0 l/m 2 min 0 min 329 W/m 16,1 km/h (3 Bft) 97,87 %
16.09.2021 13:32 18,6 C 18,9 C 17,3 C 76 % 1017,4 hPa 0,0 l/m 0 min 0 min 255 W/m 9,7 km/h (2 Bft) 97,87 %
16.09.2021 13:34 18,6 C 18,9 C 17,3 C 76 % 1017,4 hPa 0,0 l/m 0 min 0 min 222 W/m 6,4 km/h (2 Bft) 97,87 %
16.09.2021 13:36 18,6 C 18,9 C 17,3 C 76 % 1017,4 hPa 0,0 l/m 0 min 0 min 274 W/m 9,7 km/h (2 Bft) 100,00 %
16.09.2021 13:38 18,6 C 18,9 C 17,3 C 76 % 1017,4 hPa 0,0 l/m 0 min 0 min 279 W/m 6,4 km/h (2 Bft) 100,00 %
16.09.2021 13:40 18,7 C 19,4 C 17,3 C 77 % 1017,4 hPa 0,0 l/m 2 min 0 min 323 W/m 6,4 km/h (2 Bft) 100,00 %
16.09.2021 13:42 18,8 C 20,0 C 17,3 C 77 % 1017,4 hPa 0,0 l/m 2 min 0 min 811 W/m 12,9 km/h (3 Bft) 91,49 %
16.09.2021 13:44 18,9 C 20,0 C 17,8 C 76 % 1017,4 hPa 0,0 l/m 2 min 0 min 645 W/m 12,9 km/h (3 Bft) 82,98 %
16.09.2021 13:46 19,0 C 20,0 C 17,8 C 75 % 1017,4 hPa 0,0 l/m 2 min 0 min 344 W/m 12,9 km/h (3 Bft) 93,62 %
16.09.2021 13:48 19,1 C 19,4 C 17,8 C 74 % 1017,5 hPa 0,0 l/m 0 min 0 min 268 W/m 12,9 km/h (3 Bft) 91,49 %
16.09.2021 13:50 19,1 C 19,4 C 17,8 C 74 % 1017,5 hPa 0,0 l/m 0 min 0 min 279 W/m 12,9 km/h (3 Bft) 100,00 %
16.09.2021 13:52 19,1 C 19,4 C 17,3 C 74 % 1017,4 hPa 0,0 l/m 0 min 0 min 300 W/m 9,7 km/h (2 Bft) 95,74 %
16.09.2021 13:54 19,1 C 20,0 C 17,3 C 75 % 1017,3 hPa 0,0 l/m 0 min 0 min 311 W/m 9,7 km/h (2 Bft) 97,87 %
16.09.2021 13:56 19,2 C 21,7 C 17,8 C 75 % 1017,4 hPa 0,0 l/m 2 min 0 min 364 W/m 9,7 km/h (2 Bft) 100,00 %
16.09.2021 13:58 19,3 C 22,2 C 17,8 C 75 % 1017,3 hPa 0,0 l/m 2 min 0 min 369 W/m 12,9 km/h (3 Bft) 100,00 %
16.09.2021 14:00 19,4 C 22,2 C 17,8 C 74 % 1017,4 hPa 0,0 l/m 2 min 0 min 366 W/m 12,9 km/h (3 Bft) 97,87 %
16.09.2021 14:02 19,4 C 21,7 C 17,8 C 73 % 1017,4 hPa 0,0 l/m 2 min 0 min 348 W/m 16,1 km/h (3 Bft) 97,87 %
16.09.2021 14:04 19,4 C 20,6 C 17,3 C 73 % 1017,4 hPa 0,0 l/m 0 min 0 min 284 W/m 12,9 km/h (3 Bft) 97,83 %
16.09.2021 14:06 19,4 C 20,0 C 17,3 C 73 % 1017,3 hPa 0,0 l/m 0 min 0 min 212 W/m 6,4 km/h (2 Bft) 100,00 %
16.09.2021 14:08 19,3 C 20,0 C 17,3 C 73 % 1017,3 hPa 0,0 l/m 0 min 0 min 185 W/m 6,4 km/h (2 Bft) 97,87 %
16.09.2021 14:10 19,3 C 19,4 C 17,3 C 74 % 1017,4 hPa 0,0 l/m 0 min 0 min 145 W/m 6,4 km/h (2 Bft) 95,74 %
16.09.2021 14:12 19,1 C 18,9 C 17,3 C 74 % 1017,3 hPa 0,0 l/m 0 min 0 min 151 W/m 3,2 km/h (1 Bft) 97,87 %
16.09.2021 14:14 19,1 C 19,4 C 16,7 C 74 % 1017,3 hPa 0,0 l/m 0 min 0 min 247 W/m 6,4 km/h (2 Bft) 97,87 %
16.09.2021 14:16 19,1 C 20,0 C 17,3 C 75 % 1017,3 hPa 0,0 l/m 0 min 0 min 269 W/m 6,4 km/h (2 Bft) 100,00 %
16.09.2021 14:18 19,1 C 21,1 C 17,3 C 75 % 1017,3 hPa 0,0 l/m 0 min 0 min 280 W/m 12,9 km/h (3 Bft) 100,00 %
16.09.2021 14:20 19,3 C 22,8 C 17,3 C 75 % 1017,3 hPa 0,0 l/m 2 min 0 min 527 W/m 12,9 km/h (3 Bft) 100,00 %
16.09.2021 14:22 19,5 C 23,9 C 17,8 C 75 % 1017,3 hPa 0,0 l/m 2 min 0 min 716 W/m 6,4 km/h (2 Bft) 97,87 %
16.09.2021 14:24 19,8 C 24,4 C 17,8 C 75 % 1017,3 hPa 0,0 l/m 2 min 0 min 662 W/m 16,1 km/h (3 Bft) 97,87 %
16.09.2021 14:26 20,0 C 25,0 C 17,8 C 73 % 1017,3 hPa 0,0 l/m 2 min 0 min 656 W/m 12,9 km/h (3 Bft) 97,83 %
16.09.2021 14:28 20,2 C 25,6 C 17,8 C 73 % 1017,4 hPa 0,0 l/m 2 min 0 min 719 W/m 12,9 km/h (3 Bft) 97,87 %
16.09.2021 14:30 20,3 C 25,0 C 17,8 C 71 % 1017,4 hPa 0,0 l/m 2 min 0 min 754 W/m 12,9 km/h (3 Bft) 97,87 %
16.09.2021 14:32 20,4 C 25,0 C 17,8 C 72 % 1017,3 hPa 0,0 l/m 2 min 0 min 710 W/m 9,7 km/h (2 Bft) 95,74 %
16.09.2021 14:34 20,5 C 23,3 C 17,8 C 71 % 1017,3 hPa 0,0 l/m 2 min 0 min 337 W/m 9,7 km/h (2 Bft) 97,87 %
16.09.2021 14:36 20,4 C 22,2 C 17,8 C 71 % 1017,3 hPa 0,0 l/m 0 min 0 min 200 W/m 16,1 km/h (3 Bft) 97,87 %
16.09.2021 14:38 20,5 C 22,8 C 17,8 C 71 % 1017,3 hPa 0,0 l/m 0 min 0 min 216 W/m 6,4 km/h (2 Bft) 95,65 %
16.09.2021 14:40 20,5 C 23,3 C 17,8 C 72 % 1017,2 hPa 0,0 l/m 2 min 0 min 519 W/m 6,4 km/h (2 Bft) 97,87 %
16.09.2021 14:42 20,6 C 23,9 C 17,8 C 71 % 1017,3 hPa 0,0 l/m 2 min 0 min 608 W/m 9,7 km/h (2 Bft) 97,87 %
16.09.2021 14:44 20,6 C 23,3 C 17,8 C 70 % 1017,2 hPa 0,0 l/m 2 min 0 min 599 W/m 12,9 km/h (3 Bft) 97,87 %
16.09.2021 14:46 20,5 C 23,3 C 17,8 C 71 % 1017,3 hPa 0,0 l/m 2 min 0 min 462 W/m 9,7 km/h (2 Bft) 97,87 %
16.09.2021 14:48 20,6 C 22,8 C 17,8 C 71 % 1017,3 hPa 0,0 l/m 2 min 0 min 413 W/m 9,7 km/h (2 Bft) 95,74 %
16.09.2021 14:50 20,5 C 21,7 C 17,3 C 70 % 1017,2 hPa 0,0 l/m 0 min 0 min 258 W/m 6,4 km/h (2 Bft) 95,65 %
16.09.2021 14:52 20,5 C 21,1 C 17,3 C 71 % 1017,2 hPa 0,0 l/m 0 min 0 min 156 W/m 9,7 km/h (2 Bft) 93,62 %
16.09.2021 14:54 20,4 C 20,6 C 17,3 C 70 % 1017,2 hPa 0,0 l/m 0 min 0 min 146 W/m 16,1 km/h (3 Bft) 95,74 %
16.09.2021 14:56 20,2 C 20,0 C 17,3 C 71 % 1017,2 hPa 0,0 l/m 0 min 0 min 166 W/m 6,4 km/h (2 Bft) 91,49 %
16.09.2021 14:58 20,0 C 20,6 C 17,3 C 71 % 1017,2 hPa 0,0 l/m 0 min 0 min 218 W/m 6,4 km/h (2 Bft) 93,62 %
16.09.2021 15:00 19,9 C 20,6 C 17,3 C 72 % 1017,2 hPa 0,0 l/m 0 min 0 min 268 W/m 6,4 km/h (2 Bft) 95,74 %
16.09.2021 15:02 19,9 C 20,0 C 17,3 C 72 % 1017,2 hPa 0,0 l/m 0 min 0 min 260 W/m 12,9 km/h (3 Bft) 95,74 %
16.09.2021 15:04 19,8 C 20,0 C 17,3 C 71 % 1017,2 hPa 0,0 l/m 0 min 0 min 295 W/m 3,2 km/h (1 Bft) 95,74 %
16.09.2021 15:06 19,8 C 20,6 C 17,3 C 72 % 1017,2 hPa 0,0 l/m 0 min 0 min 271 W/m 6,4 km/h (2 Bft) 95,74 %
16.09.2021 15:08 19,8 C 20,6 C 17,3 C 73 % 1017,2 hPa 0,0 l/m 2 min 0 min 321 W/m 3,2 km/h (1 Bft) 95,74 %
16.09.2021 15:10 19,9 C 20,6 C 17,3 C 74 % 1017,2 hPa 0,0 l/m 2 min 0 min 406 W/m 6,4 km/h (2 Bft) 93,62 %
16.09.2021 15:12 19,9 C 20,6 C 17,8 C 73 % 1017,2 hPa 0,0 l/m 2 min 0 min 305 W/m 12,9 km/h (3 Bft) 93,62 %
16.09.2021 15:14 20,0 C 20,6 C 17,8 C 73 % 1017,2 hPa 0,0 l/m 0 min 0 min 221 W/m 9,7 km/h (2 Bft) 91,30 %
16.09.2021 15:16 20,0 C 20,0 C 17,3 C 72 % 1017,2 hPa 0,0 l/m 0 min 0 min 170 W/m 12,9 km/h (3 Bft) 93,62 %
16.09.2021 15:18 19,9 C 20,0 C 17,3 C 72 % 1017,2 hPa 0,0 l/m 0 min 0 min 197 W/m 9,7 km/h (2 Bft) 93,62 %
16.09.2021 15:20 19,9 C 21,1 C 17,3 C 72 % 1017,2 hPa 0,0 l/m 2 min 0 min 317 W/m 12,9 km/h (3 Bft) 93,62 %
16.09.2021 15:22 20,0 C 21,1 C 17,8 C 72 % 1017,2 hPa 0,0 l/m 2 min 0 min 669 W/m 12,9 km/h (3 Bft) 91,49 %
16.09.2021 15:24 20,1 C 21,7 C 17,8 C 72 % 1017,1 hPa 0,0 l/m 2 min 0 min 728 W/m 6,4 km/h (2 Bft) 93,62 %
16.09.2021 15:26 20,3 C 21,7 C 17,8 C 72 % 1017,1 hPa 0,0 l/m 2 min 0 min 747 W/m 16,1 km/h (3 Bft) 93,48 %
16.09.2021 15:28 20,4 C 21,1 C 18,4 C 70 % 1017,1 hPa 0,0 l/m 2 min 0 min 568 W/m 12,9 km/h (3 Bft) 95,74 %
16.09.2021 15:30 20,4 C 21,1 C 17,8 C 70 % 1017,1 hPa 0,0 l/m 2 min 0 min 297 W/m 9,7 km/h (2 Bft) 97,87 %
16.09.2021 15:32 20,4 C 21,1 C 17,8 C 70 % 1017,1 hPa 0,0 l/m 2 min 0 min 314 W/m 12,9 km/h (3 Bft) 95,74 %
16.09.2021 15:34 20,4 C 20,6 C 17,8 C 69 % 1017,1 hPa 0,0 l/m 0 min 0 min 238 W/m 9,7 km/h (2 Bft) 97,87 %
16.09.2021 15:36 20,4 C 20,6 C 17,8 C 69 % 1017,1 hPa 0,0 l/m 0 min 0 min 212 W/m 12,9 km/h (3 Bft) 95,74 %
16.09.2021 15:38 20,4 C 20,0 C 17,8 C 69 % 1017,1 hPa 0,0 l/m 0 min 0 min 183 W/m 16,1 km/h (3 Bft) 97,83 %
16.09.2021 15:40 20,3 C 20,0 C 17,8 C 69 % 1017,1 hPa 0,0 l/m 0 min 0 min 149 W/m 9,7 km/h (2 Bft) 97,87 %
16.09.2021 15:42 20,3 C 20,0 C 17,8 C 69 % 1017,0 hPa 0,0 l/m 0 min 0 min 131 W/m 12,9 km/h (3 Bft) 95,74 %
16.09.2021 15:44 20,3 C 19,4 C 17,8 C 70 % 1017,0 hPa 0,0 l/m 0 min 0 min 106 W/m 6,4 km/h (2 Bft) 97,87 %
16.09.2021 15:46 20,1 C 19,4 C 17,3 C 71 % 1017,0 hPa 0,0 l/m 0 min 0 min 94 W/m 12,9 km/h (3 Bft) 97,87 %
16.09.2021 15:48 20,0 C 19,4 C 17,3 C 71 % 1017,0 hPa 0,0 l/m 0 min 0 min 105 W/m 6,4 km/h (2 Bft) 100,00 %
16.09.2021 15:50 20,0 C 19,4 C 17,3 C 71 % 1017,0 hPa 0,0 l/m 0 min 0 min 122 W/m 19,3 km/h (3 Bft) 100,00 %
16.09.2021 15:52 19,9 C 19,4 C 17,3 C 71 % 1017,0 hPa 0,0 l/m 0 min 0 min 129 W/m 16,1 km/h (3 Bft) 100,00 %
16.09.2021 15:54 19,9 C 19,4 C 17,3 C 71 % 1017,0 hPa 0,0 l/m 0 min 0 min 132 W/m 9,7 km/h (2 Bft) 100,00 %
16.09.2021 15:56 19,9 C 19,4 C 17,3 C 71 % 1017,0 hPa 0,0 l/m 0 min 0 min 139 W/m 12,9 km/h (3 Bft) 100,00 %
16.09.2021 15:58 19,8 C 19,4 C 17,3 C 72 % 1017,0 hPa 0,0 l/m 0 min 0 min 163 W/m 3,2 km/h (1 Bft) 100,00 %
16.09.2021 16:00 19,8 C 20,6 C 17,3 C 72 % 1017,0 hPa 0,0 l/m 2 min 0 min 439 W/m 6,4 km/h (2 Bft) 100,00 %
16.09.2021 16:02 19,9 C 20,6 C 17,3 C 72 % 1017,0 hPa 0,0 l/m 2 min 0 min 642 W/m 12,9 km/h (3 Bft) 97,83 %
16.09.2021 16:04 19,9 C 20,0 C 17,3 C 72 % 1017,0 hPa 0,0 l/m 0 min 0 min 173 W/m 9,7 km/h (2 Bft) 97,87 %
16.09.2021 16:06 19,9 C 20,0 C 17,3 C 72 % 1017,0 hPa 0,0 l/m 0 min 0 min 165 W/m 19,3 km/h (3 Bft) 100,00 %
16.09.2021 16:08 19,9 C 21,1 C 17,3 C 72 % 1017,0 hPa 0,0 l/m 2 min 0 min 267 W/m 9,7 km/h (2 Bft) 100,00 %
16.09.2021 16:10 20,0 C 21,1 C 17,3 C 71 % 1016,9 hPa 0,0 l/m 2 min 0 min 274 W/m 16,1 km/h (3 Bft) 97,87 %
16.09.2021 16:12 20,0 C 22,2 C 17,8 C 71 % 1016,9 hPa 0,0 l/m 2 min 0 min 283 W/m 12,9 km/h (3 Bft) 95,74 %
16.09.2021 16:14 20,1 C 23,9 C 17,8 C 72 % 1016,9 hPa 0,0 l/m 2 min 0 min 283 W/m 12,9 km/h (3 Bft) 82,61 %
16.09.2021 16:16 20,2 C 25,0 C 17,8 C 71 % 1016,9 hPa 0,0 l/m 2 min 0 min 397 W/m 9,7 km/h (2 Bft) 100,00 %
16.09.2021 16:18 20,4 C 26,1 C 18,4 C 72 % 1017,0 hPa 0,0 l/m 2 min 0 min 594 W/m 12,9 km/h (3 Bft) 100,00 %
16.09.2021 16:20 20,5 C 25,0 C 18,4 C 70 % 1016,9 hPa 0,0 l/m 2 min 0 min 613 W/m 19,3 km/h (3 Bft) 100,00 %
16.09.2021 16:22 20,5 C 23,3 C 17,8 C 70 % 1016,9 hPa 0,0 l/m 2 min 0 min 380 W/m 16,1 km/h (3 Bft) 100,00 %
16.09.2021 16:24 20,5 C 21,7 C 17,8 C 70 % 1016,9 hPa 0,0 l/m 0 min 0 min 130 W/m 16,1 km/h (3 Bft) 100,00 %
16.09.2021 16:26 20,4 C 20,6 C 17,8 C 70 % 1016,9 hPa 0,0 l/m 0 min 0 min 121 W/m 9,7 km/h (2 Bft) 100,00 %
16.09.2021 16:28 20,3 C 20,6 C 17,3 C 70 % 1017,0 hPa 0,0 l/m 0 min 0 min 153 W/m 9,7 km/h (2 Bft) 100,00 %
16.09.2021 16:30 20,3 C 20,0 C 17,3 C 71 % 1016,9 hPa 0,0 l/m 0 min 0 min 151 W/m 6,4 km/h (2 Bft) 100,00 %
16.09.2021 16:32 20,2 C 20,0 C 17,3 C 71 % 1016,9 hPa 0,0 l/m 0 min 0 min 171 W/m 3,2 km/h (1 Bft) 100,00 %
16.09.2021 16:34 20,1 C 20,0 C 17,3 C 71 % 1016,9 hPa 0,0 l/m 0 min 0 min 183 W/m 12,9 km/h (3 Bft) 100,00 %
16.09.2021 16:36 20,0 C 20,0 C 17,3 C 72 % 1016,9 hPa 0,0 l/m 0 min 0 min 196 W/m 9,7 km/h (2 Bft) 100,00 %
16.09.2021 16:38 20,0 C 20,0 C 17,3 C 72 % 1016,9 hPa 0,0 l/m 0 min 0 min 206 W/m 12,9 km/h (3 Bft) 100,00 %
16.09.2021 16:40 20,0 C 21,1 C 17,3 C 72 % 1016,9 hPa 0,0 l/m 2 min 0 min 243 W/m 9,7 km/h (2 Bft) 100,00 %
16.09.2021 16:42 20,0 C 22,8 C 17,8 C 72 % 1016,9 hPa 0,0 l/m 2 min 0 min 388 W/m 12,9 km/h (3 Bft) 100,00 %
16.09.2021 16:44 20,1 C 24,4 C 17,8 C 73 % 1016,9 hPa 0,0 l/m 2 min 0 min 397 W/m 12,9 km/h (3 Bft) 100,00 %
16.09.2021 16:46 20,3 C 25,6 C 18,4 C 72 % 1016,9 hPa 0,0 l/m 2 min 0 min 573 W/m 19,3 km/h (3 Bft) 100,00 %
16.09.2021 16:48 20,4 C 26,1 C 18,4 C 72 % 1017,0 hPa 0,0 l/m 2 min 0 min 591 W/m 12,9 km/h (3 Bft) 100,00 %
16.09.2021 16:50 20,5 C 24,4 C 18,4 C 71 % 1016,9 hPa 0,0 l/m 2 min 0 min 406 W/m 12,9 km/h (3 Bft) 97,83 %
16.09.2021 16:52 20,5 C 22,8 C 18,4 C 71 % 1017,0 hPa 0,0 l/m 0 min 0 min 209 W/m 16,1 km/h (3 Bft) 100,00 %
16.09.2021 16:54 20,4 C 21,7 C 18,4 C 70 % 1016,9 hPa 0,0 l/m 0 min 0 min 189 W/m 9,7 km/h (2 Bft) 100,00 %
16.09.2021 16:56 20,4 C 21,1 C 17,8 C 71 % 1016,9 hPa 0,0 l/m 0 min 0 min 164 W/m 9,7 km/h (2 Bft) 100,00 %
16.09.2021 16:58 20,4 C 20,6 C 17,8 C 72 % 1016,9 hPa 0,0 l/m 0 min 0 min 144 W/m 6,4 km/h (2 Bft) 100,00 %
16.09.2021 17:00 20,4 C 21,1 C 17,8 C 72 % 1016,9 hPa 0,0 l/m 0 min 0 min 160 W/m 6,4 km/h (2 Bft) 100,00 %
16.09.2021 17:02 20,3 C 21,1 C 17,8 C 72 % 1016,9 hPa 0,0 l/m 0 min 0 min 165 W/m 6,4 km/h (2 Bft) 100,00 %
16.09.2021 17:04 20,3 C 22,8 C 17,8 C 72 % 1016,9 hPa 0,0 l/m 2 min 0 min 272 W/m 12,9 km/h (3 Bft) 100,00 %
16.09.2021 17:06 20,3 C 23,9 C 17,8 C 72 % 1017,0 hPa 0,0 l/m 2 min 0 min 470 W/m 12,9 km/h (3 Bft) 100,00 %
16.09.2021 17:08 20,4 C 26,1 C 17,8 C 73 % 1016,9 hPa 0,0 l/m 2 min 0 min 524 W/m 6,4 km/h (2 Bft) 100,00 %
16.09.2021 17:10 20,5 C 26,1 C 17,8 C 73 % 1016,9 hPa 0,0 l/m 2 min 0 min 516 W/m 6,4 km/h (2 Bft) 100,00 %
16.09.2021 17:12 20,6 C 26,1 C 18,4 C 73 % 1016,9 hPa 0,0 l/m 2 min 0 min 476 W/m 12,9 km/h (3 Bft) 100,00 %
16.09.2021 17:14 20,7 C 26,1 C 17,8 C 72 % 1016,9 hPa 0,0 l/m 2 min 0 min 463 W/m 16,1 km/h (3 Bft) 100,00 %
16.09.2021 17:16 20,7 C 26,1 C 17,8 C 71 % 1016,8 hPa 0,0 l/m 2 min 0 min 442 W/m 12,9 km/h (3 Bft) 97,87 %
16.09.2021 17:18 20,8 C 24,4 C 17,8 C 71 % 1016,8 hPa 0,0 l/m 2 min 0 min 336 W/m 6,4 km/h (2 Bft) 97,87 %
16.09.2021 17:20 20,7 C 23,9 C 17,8 C 70 % 1016,8 hPa 0,0 l/m 2 min 0 min 219 W/m 16,1 km/h (3 Bft) 97,87 %
16.09.2021 17:22 20,6 C 24,4 C 17,8 C 71 % 1016,8 hPa 0,0 l/m 2 min 0 min 369 W/m 6,4 km/h (2 Bft) 97,87 %
16.09.2021 17:24 20,6 C 25,0 C 17,8 C 70 % 1016,8 hPa 0,0 l/m 2 min 0 min 366 W/m 19,3 km/h (3 Bft) 97,87 %
16.09.2021 17:26 20,7 C 25,6 C 17,8 C 71 % 1016,8 hPa 0,0 l/m 2 min 0 min 358 W/m 12,9 km/h (3 Bft) 95,65 %
16.09.2021 17:28 20,8 C 26,1 C 17,8 C 71 % 1016,8 hPa 0,0 l/m 2 min 0 min 352 W/m 9,7 km/h (2 Bft) 95,74 %
16.09.2021 17:30 20,8 C 26,1 C 17,8 C 71 % 1016,8 hPa 0,0 l/m 2 min 0 min 347 W/m 9,7 km/h (2 Bft) 95,74 %
16.09.2021 17:32 20,8 C 26,1 C 17,8 C 71 % 1016,8 hPa 0,0 l/m 2 min 0 min 320 W/m 6,4 km/h (2 Bft) 95,74 %
16.09.2021 17:34 20,8 C 25,6 C 17,8 C 71 % 1016,8 hPa 0,0 l/m 2 min 0 min 259 W/m 9,7 km/h (2 Bft) 93,62 %
16.09.2021 17:36 20,9 C 25,6 C 17,8 C 70 % 1016,8 hPa 0,0 l/m 2 min 0 min 331 W/m 12,9 km/h (3 Bft) 93,48 %
16.09.2021 17:38 20,9 C 24,4 C 17,8 C 70 % 1016,8 hPa 0,0 l/m 2 min 0 min 340 W/m 12,9 km/h (3 Bft) 95,74 %
16.09.2021 17:40 20,8 C 23,3 C 17,8 C 69 % 1016,8 hPa 0,0 l/m 0 min 0 min 122 W/m 16,1 km/h (3 Bft) 95,74 %
16.09.2021 17:42 20,8 C 24,4 C 17,8 C 69 % 1016,8 hPa 0,0 l/m 2 min 0 min 284 W/m 12,9 km/h (3 Bft) 93,62 %
16.09.2021 17:44 20,8 C 25,6 C 17,8 C 69 % 1016,8 hPa 0,0 l/m 2 min 0 min 309 W/m 19,3 km/h (3 Bft) 93,62 %
16.09.2021 17:46 20,8 C 25,0 C 17,8 C 69 % 1016,8 hPa 0,0 l/m 2 min 0 min 327 W/m 22,5 km/h (4 Bft) 95,74 %
16.09.2021 17:48 20,9 C 25,0 C 17,8 C 69 % 1016,9 hPa 0,0 l/m 2 min 0 min 316 W/m 12,9 km/h (3 Bft) 95,65 %
16.09.2021 17:50 20,9 C 25,0 C 17,8 C 68 % 1016,9 hPa 0,0 l/m 2 min 0 min 298 W/m 16,1 km/h (3 Bft) 93,62 %
16.09.2021 17:52 20,9 C 25,0 C 17,8 C 69 % 1016,8 hPa 0,0 l/m 2 min 0 min 248 W/m 9,7 km/h (2 Bft) 91,49 %
16.09.2021 17:54 21,0 C 24,4 C 17,8 C 69 % 1016,8 hPa 0,0 l/m 2 min 0 min 276 W/m 6,4 km/h (2 Bft) 93,62 %
16.09.2021 17:56 21,0 C 23,3 C 17,8 C 68 % 1016,9 hPa 0,0 l/m 2 min 0 min 176 W/m 12,9 km/h (3 Bft) 91,49 %
16.09.2021 17:58 20,9 C 22,2 C 17,8 C 68 % 1016,8 hPa 0,0 l/m 0 min 0 min 90 W/m 9,7 km/h (2 Bft) 93,62 %
16.09.2021 18:00 20,9 C 21,1 C 17,8 C 68 % 1016,9 hPa 0,0 l/m 0 min 0 min 95 W/m 12,9 km/h (3 Bft) 91,30 %
16.09.2021 18:02 20,8 C 20,6 C 17,8 C 68 % 1016,9 hPa 0,0 l/m 0 min 0 min 91 W/m 12,9 km/h (3 Bft) 93,62 %
16.09.2021 18:04 20,8 C 20,0 C 17,3 C 68 % 1016,9 hPa 0,0 l/m 0 min 0 min 86 W/m 9,7 km/h (2 Bft) 95,74 %
16.09.2021 18:08 20,5 C 19,4 C 17,3 C 69 % 1016,9 hPa 0,0 l/m 0 min 0 min 87 W/m 6,4 km/h (2 Bft) 96,04 %
16.09.2021 18:10 20,5 C 19,4 C 17,3 C 69 % 1016,9 hPa 0,0 l/m 0 min 0 min 83 W/m 6,4 km/h (2 Bft) 97,87 %
16.09.2021 18:12 20,4 C 19,4 C 17,3 C 69 % 1017,0 hPa 0,0 l/m 0 min 0 min 77 W/m 12,9 km/h (3 Bft) 97,87 %
16.09.2021 18:14 20,4 C 19,4 C 17,3 C 70 % 1017,0 hPa 0,0 l/m 0 min 0 min 73 W/m 3,2 km/h (1 Bft) 95,74 %
16.09.2021 18:16 20,3 C 19,4 C 17,3 C 70 % 1017,0 hPa 0,0 l/m 0 min 0 min 68 W/m 3,2 km/h (1 Bft) 97,87 %
16.09.2021 18:18 20,3 C 19,4 C 17,3 C 71 % 1017,0 hPa 0,0 l/m 0 min 0 min 63 W/m 9,7 km/h (2 Bft) 97,87 %
16.09.2021 18:20 20,1 C 18,9 C 16,7 C 71 % 1017,0 hPa 0,0 l/m 0 min 0 min 62 W/m 6,4 km/h (2 Bft) 97,83 %
16.09.2021 18:22 20,1 C 18,9 C 16,7 C 71 % 1017,0 hPa 0,0 l/m 0 min 0 min 60 W/m 6,4 km/h (2 Bft) 95,74 %
16.09.2021 18:24 20,0 C 18,9 C 16,7 C 72 % 1017,0 hPa 0,0 l/m 0 min 0 min 58 W/m 12,9 km/h (3 Bft) 95,74 %
16.09.2021 18:26 20,0 C 18,9 C 16,7 C 72 % 1017,0 hPa 0,0 l/m 0 min 0 min 59 W/m 6,4 km/h (2 Bft) 97,87 %
16.09.2021 18:28 19,9 C 18,9 C 16,7 C 72 % 1017,0 hPa 0,0 l/m 0 min 0 min 62 W/m 9,7 km/h (2 Bft) 97,87 %
16.09.2021 18:30 19,9 C 18,9 C 16,7 C 72 % 1017,0 hPa 0,0 l/m 0 min 0 min 62 W/m 9,7 km/h (2 Bft) 95,74 %
16.09.2021 18:32 19,8 C 18,9 C 16,7 C 73 % 1017,0 hPa 0,0 l/m 0 min 0 min 62 W/m 6,4 km/h (2 Bft) 97,87 %
16.09.2021 18:34 19,8 C 18,9 C 16,7 C 73 % 1017,0 hPa 0,0 l/m 0 min 0 min 65 W/m 9,7 km/h (2 Bft) 97,87 %
16.09.2021 18:36 19,6 C 18,9 C 16,7 C 73 % 1017,0 hPa 0,0 l/m 0 min 0 min 68 W/m 16,1 km/h (3 Bft) 95,74 %
16.09.2021 18:38 19,6 C 18,9 C 16,7 C 74 % 1017,1 hPa 0,0 l/m 0 min 0 min 69 W/m 6,4 km/h (2 Bft) 89,36 %
16.09.2021 18:40 19,6 C 18,9 C 16,7 C 74 % 1017,1 hPa 0,0 l/m 0 min 0 min 67 W/m 3,2 km/h (1 Bft) 82,98 %
16.09.2021 18:42 19,5 C 18,9 C 16,7 C 74 % 1017,0 hPa 0,0 l/m 0 min 0 min 67 W/m 9,7 km/h (2 Bft) 80,43 %
16.09.2021 18:44 19,5 C 18,9 C 16,7 C 74 % 1017,1 hPa 0,0 l/m 0 min 0 min 67 W/m 9,7 km/h (2 Bft) 72,34 %
16.09.2021 18:46 19,5 C 18,9 C 16,7 C 74 % 1017,1 hPa 0,0 l/m 0 min 0 min 65 W/m 12,9 km/h (3 Bft) 93,62 %
16.09.2021 18:48 19,5 C 18,9 C 16,7 C 74 % 1017,1 hPa 0,0 l/m 0 min 0 min 63 W/m 9,7 km/h (2 Bft) 87,23 %
16.09.2021 18:50 19,4 C 18,9 C 16,7 C 74 % 1017,1 hPa 0,0 l/m 0 min 0 min 62 W/m 6,4 km/h (2 Bft) 100,00 %
16.09.2021 18:52 19,4 C 18,9 C 16,7 C 74 % 1017,1 hPa 0,0 l/m 0 min 0 min 58 W/m 3,2 km/h (1 Bft) 95,74 %
16.09.2021 18:54 19,4 C 18,9 C 16,7 C 74 % 1017,1 hPa 0,0 l/m 0 min 0 min 55 W/m 6,4 km/h (2 Bft) 91,30 %
16.09.2021 18:56 19,4 C 18,9 C 16,7 C 74 % 1017,1 hPa 0,0 l/m 2 min 0 min 70 W/m 9,7 km/h (2 Bft) 97,87 %
16.09.2021 18:58 19,4 C 18,9 C 16,7 C 74 % 1017,1 hPa 0,0 l/m 0 min 0 min 53 W/m 6,4 km/h (2 Bft) 97,87 %
16.09.2021 19:00 19,3 C 18,9 C 16,1 C 74 % 1017,1 hPa 0,0 l/m 0 min 0 min 51 W/m 6,4 km/h (2 Bft) 100,00 %
16.09.2021 19:02 19,3 C 18,9 C 16,1 C 75 % 1017,1 hPa 0,0 l/m 0 min 0 min 50 W/m 9,7 km/h (2 Bft) 100,00 %
16.09.2021 19:04 19,3 C 18,9 C 16,1 C 75 % 1017,1 hPa 0,0 l/m 0 min 0 min 48 W/m 3,2 km/h (1 Bft) 100,00 %
16.09.2021 19:06 19,3 C 18,9 C 16,1 C 75 % 1017,1 hPa 0,0 l/m 0 min 0 min 46 W/m 6,4 km/h (2 Bft) 100,00 %
16.09.2021 19:08 19,2 C 18,3 C 16,1 C 75 % 1017,2 hPa 0,0 l/m 0 min 0 min 42 W/m 3,2 km/h (1 Bft) 100,00 %
16.09.2021 19:10 19,2 C 18,3 C 16,1 C 76 % 1017,2 hPa 0,0 l/m 0 min 0 min 37 W/m 6,4 km/h (2 Bft) 100,00 %
16.09.2021 19:12 19,2 C 18,3 C 16,1 C 76 % 1017,2 hPa 0,0 l/m 0 min 0 min 31 W/m 6,4 km/h (2 Bft) 95,74 %
16.09.2021 19:14 19,1 C 18,3 C 16,1 C 76 % 1017,2 hPa 0,0 l/m 0 min 0 min 27 W/m 6,4 km/h (2 Bft) 100,00 %
16.09.2021 19:16 19,1 C 18,3 C 16,1 C 76 % 1017,2 hPa 0,0 l/m 0 min 0 min 25 W/m 6,4 km/h (2 Bft) 100,00 %
16.09.2021 19:18 19,1 C 18,3 C 16,1 C 76 % 1017,2 hPa 0,0 l/m 0 min 0 min 23 W/m 3,2 km/h (1 Bft) 100,00 %
16.09.2021 19:20 19,0 C 17,8 C 16,1 C 76 % 1017,2 hPa 0,0 l/m 0 min 0 min 20 W/m 6,4 km/h (2 Bft) 100,00 %
16.09.2021 19:22 19,0 C 17,8 C 16,1 C 76 % 1017,2 hPa 0,0 l/m 0 min 0 min 16 W/m 3,2 km/h (1 Bft) 97,87 %
16.09.2021 19:24 19,0 C 17,8 C 15,6 C 76 % 1017,2 hPa 0,0 l/m 0 min 0 min 14 W/m 3,2 km/h (1 Bft) 100,00 %
16.09.2021 19:26 19,0 C 17,8 C 15,6 C 77 % 1017,2 hPa 0,0 l/m 0 min 0 min 11 W/m 3,2 km/h (1 Bft) 91,49 %
16.09.2021 19:28 18,9 C 17,8 C 15,6 C 77 % 1017,2 hPa 0,0 l/m 0 min 0 min 7 W/m 3,2 km/h (1 Bft) 100,00 %
16.09.2021 19:30 18,9 C 17,8 C 15,6 C 77 % 1017,2 hPa 0,0 l/m 0 min 0 min 7 W/m 3,2 km/h (1 Bft) 100,00 %
16.09.2021 19:32 18,9 C 17,2 C 15,6 C 77 % 1017,2 hPa 0,0 l/m 0 min 0 min 7 W/m 0,0 km/h (0 Bft) 100,00 %
16.09.2021 19:34 18,9 C 17,2 C 15,6 C 77 % 1017,2 hPa 0,0 l/m 0 min 0 min 7 W/m 0,0 km/h (0 Bft) 76,60 %
16.09.2021 19:36 18,8 C 17,2 C 15,6 C 77 % 1017,2 hPa 0,0 l/m 0 min 0 min 6 W/m 0,0 km/h (0 Bft) 76,60 %
16.09.2021 19:38 18,8 C 17,2 C 15,6 C 78 % 1017,2 hPa 0,0 l/m 0 min 0 min 5 W/m 0,0 km/h (0 Bft) 97,87 %
16.09.2021 19:40 18,8 C 17,2 C 15,6 C 78 % 1017,2 hPa 0,0 l/m 0 min 0 min 1 W/m 0,0 km/h (0 Bft) 97,87 %
16.09.2021 19:42 18,7 C 17,2 C 15,6 C 78 % 1017,2 hPa 0,0 l/m 0 min 0 min 0 W/m 0,0 km/h (0 Bft) 95,65 %
16.09.2021 19:44 18,7 C 17,2 C 15,6 C 78 % 1017,2 hPa 0,0 l/m 0 min 0 min 0 W/m 0,0 km/h (0 Bft) 91,49 %
16.09.2021 19:46 18,6 C 17,2 C 15,6 C 78 % 1017,2 hPa 0,0 l/m 0 min 0 min 0 W/m 3,2 km/h (1 Bft) 91,49 %
16.09.2021 19:48 18,6 C 17,2 C 15,6 C 78 % 1017,2 hPa 0,0 l/m 0 min 0 min 0 W/m 3,2 km/h (1 Bft) 97,87 %
16.09.2021 19:50 18,6 C 17,2 C 15,6 C 78 % 1017,2 hPa 0,0 l/m 0 min 0 min 0 W/m 3,2 km/h (1 Bft) 95,74 %
16.09.2021 19:52 18,6 C 17,2 C 15,6 C 78 % 1017,2 hPa 0,0 l/m 0 min 0 min 0 W/m 3,2 km/h (1 Bft) 97,87 %
16.09.2021 19:54 18,5 C 17,2 C 15,6 C 78 % 1017,2 hPa 0,0 l/m 0 min 0 min 0 W/m 3,2 km/h (1 Bft) 95,65 %
16.09.2021 19:56 18,5 C 17,2 C 15,6 C 78 % 1017,2 hPa 0,0 l/m 0 min 0 min 0 W/m 3,2 km/h (1 Bft) 95,74 %
16.09.2021 19:58 18,5 C 17,2 C 15,6 C 78 % 1017,2 hPa 0,0 l/m 0 min 0 min 0 W/m 3,2 km/h (1 Bft) 93,62 %
16.09.2021 20:00 18,5 C 17,2 C 15,6 C 78 % 1017,3 hPa 0,0 l/m 0 min 0 min 0 W/m 3,2 km/h (1 Bft) 95,74 %
16.09.2021 20:02 18,4 C 17,2 C 15,6 C 78 % 1017,2 hPa 0,0 l/m 0 min 0 min 0 W/m 3,2 km/h (1 Bft) 95,74 %
16.09.2021 20:04 18,4 C 17,2 C 15,6 C 79 % 1017,3 hPa 0,0 l/m 0 min 0 min 0 W/m 3,2 km/h (1 Bft) 97,87 %
16.09.2021 20:06 18,4 C 17,2 C 15,6 C 79 % 1017,4 hPa 0,0 l/m 0 min 0 min 0 W/m 3,2 km/h (1 Bft) 91,30 %
16.09.2021 20:08 18,4 C 17,2 C 15,6 C 79 % 1017,3 hPa 0,0 l/m 0 min 0 min 0 W/m 3,2 km/h (1 Bft) 97,87 %
16.09.2021 20:10 18,4 C 17,2 C 15,6 C 79 % 1017,3 hPa 0,0 l/m 0 min 0 min 0 W/m 3,2 km/h (1 Bft) 97,87 %
16.09.2021 20:12 18,3 C 17,2 C 15,6 C 79 % 1017,3 hPa 0,0 l/m 0 min 0 min 0 W/m 0,0 km/h (0 Bft) 97,87 %
16.09.2021 20:14 18,3 C 17,2 C 15,6 C 79 % 1017,3 hPa 0,0 l/m 0 min 0 min 0 W/m 3,2 km/h (1 Bft) 97,87 %
16.09.2021 20:16 18,3 C 17,2 C 15,0 C 79 % 1017,3 hPa 0,0 l/m 0 min 0 min 0 W/m 0,0 km/h (0 Bft) 95,74 %
16.09.2021 20:18 18,3 C 16,7 C 15,0 C 80 % 1017,3 hPa 0,0 l/m 0 min 0 min 0 W/m 3,2 km/h (1 Bft) 95,65 %
16.09.2021 20:20 18,1 C 16,7 C 15,0 C 79 % 1017,4 hPa 0,0 l/m 0 min 0 min 0 W/m 0,0 km/h (0 Bft) 97,87 %
16.09.2021 20:22 18,1 C 16,7 C 15,0 C 79 % 1017,3 hPa 0,0 l/m 0 min 0 min 0 W/m 0,0 km/h (0 Bft) 95,74 %
16.09.2021 20:24 18,1 C 16,7 C 15,0 C 79 % 1017,4 hPa 0,0 l/m 0 min 0 min 0 W/m 0,0 km/h (0 Bft) 97,87 %
16.09.2021 20:26 18,0 C 16,7 C 15,0 C 80 % 1017,3 hPa 0,0 l/m 0 min 0 min 0 W/m 0,0 km/h (0 Bft) 97,87 %
16.09.2021 20:28 18,0 C 16,7 C 14,5 C 80 % 1017,3 hPa 0,0 l/m 0 min 0 min 0 W/m 0,0 km/h (0 Bft) 97,83 %
16.09.2021 20:30 18,0 C 16,1 C 14,5 C 80 % 1017,3 hPa 0,0 l/m 0 min 0 min 0 W/m 3,2 km/h (1 Bft) 95,74 %
16.09.2021 20:32 17,9 C 16,1 C 14,5 C 80 % 1017,4 hPa 0,0 l/m 0 min 0 min 0 W/m 0,0 km/h (0 Bft) 95,74 %
16.09.2021 20:34 17,9 C 16,1 C 14,5 C 80 % 1017,4 hPa 0,0 l/m 0 min 0 min 0 W/m 0,0 km/h (0 Bft) 97,87 %
16.09.2021 20:36 17,9 C 16,1 C 13,9 C 81 % 1017,3 hPa 0,0 l/m 0 min 0 min 0 W/m 0,0 km/h (0 Bft) 95,74 %
16.09.2021 20:38 17,8 C 15,6 C 13,9 C 81 % 1017,4 hPa 0,0 l/m 0 min 0 min 0 W/m 0,0 km/h (0 Bft) 95,74 %
16.09.2021 20:40 17,8 C 15,6 C 13,9 C 81 % 1017,4 hPa 0,0 l/m 0 min 0 min 0 W/m 0,0 km/h (0 Bft) 93,62 %
16.09.2021 20:42 17,7 C 15,6 C 13,9 C 81 % 1017,4 hPa 0,0 l/m 0 min 0 min 0 W/m 0,0 km/h (0 Bft) 97,83 %
16.09.2021 20:44 17,6 C 15,6 C 13,9 C 81 % 1017,4 hPa 0,0 l/m 0 min 0 min 0 W/m 0,0 km/h (0 Bft) 97,87 %
16.09.2021 20:46 17,6 C 15,6 C 13,9 C 81 % 1017,4 hPa 0,0 l/m 0 min 0 min 0 W/m 0,0 km/h (0 Bft) 97,87 %
16.09.2021 20:48 17,5 C 15,6 C 13,9 C 81 % 1017,4 hPa 0,0 l/m 0 min 0 min 0 W/m 0,0 km/h (0 Bft) 97,87 %
16.09.2021 20:50 17,5 C 15,6 C 13,9 C 82 % 1017,4 hPa 0,0 l/m 0 min 0 min 0 W/m 0,0 km/h (0 Bft) 95,74 %
16.09.2021 20:52 17,4 C 15,6 C 13,9 C 82 % 1017,4 hPa 0,0 l/m 0 min 0 min 0 W/m 0,0 km/h (0 Bft) 95,74 %
16.09.2021 20:54 17,3 C 15,6 C 13,9 C 82 % 1017,5 hPa 0,0 l/m 0 min 0 min 0 W/m 0,0 km/h (0 Bft) 93,48 %
16.09.2021 20:56 17,3 C 15,6 C 13,9 C 82 % 1017,5 hPa 0,0 l/m 0 min 0 min 0 W/m 0,0 km/h (0 Bft) 93,62 %
16.09.2021 20:58 17,2 C 15,6 C 13,9 C 82 % 1017,5 hPa 0,0 l/m 0 min 0 min 0 W/m 0,0 km/h (0 Bft) 97,87 %
16.09.2021 21:00 17,1 C 15,0 C 13,4 C 82 % 1017,5 hPa 0,0 l/m 0 min 0 min 0 W/m 0,0 km/h (0 Bft) 97,87 %
16.09.2021 21:02 17,1 C 15,0 C 13,4 C 83 % 1017,5 hPa 0,0 l/m 0 min 0 min 0 W/m 0,0 km/h (0 Bft) 97,92 %
16.09.2021 21:04 17,0 C 15,0 C 13,4 C 83 % 1017,5 hPa 0,0 l/m 0 min 0 min 0 W/m 0,0 km/h (0 Bft) 95,65 %
16.09.2021 21:06 17,0 C 15,0 C 13,4 C 83 % 1017,6 hPa 0,0 l/m 0 min 0 min 0 W/m 0,0 km/h (0 Bft) 95,74 %
16.09.2021 21:08 17,0 C 15,0 C 13,4 C 84 % 1017,6 hPa 0,0 l/m 0 min 0 min 0 W/m 0,0 km/h (0 Bft) 97,87 %
16.09.2021 21:10 16,9 C 15,0 C 13,4 C 84 % 1017,6 hPa 0,0 l/m 0 min 0 min 0 W/m 0,0 km/h (0 Bft) 97,87 %
16.09.2021 21:12 16,9 C 15,0 C 13,4 C 84 % 1017,6 hPa 0,0 l/m 0 min 0 min 0 W/m 0,0 km/h (0 Bft) 97,87 %
16.09.2021 21:14 16,8 C 15,0 C 13,4 C 84 % 1017,6 hPa 0,0 l/m 0 min 0 min 0 W/m 0,0 km/h (0 Bft) 97,87 %
16.09.2021 21:16 16,7 C 15,0 C 13,4 C 84 % 1017,6 hPa 0,0 l/m 0 min 0 min 0 W/m 0,0 km/h (0 Bft) 97,83 %
16.09.2021 21:18 16,6 C 15,0 C 13,4 C 84 % 1017,6 hPa 0,0 l/m 0 min 0 min 0 W/m 0,0 km/h (0 Bft) 95,74 %
16.09.2021 21:20 16,6 C 14,4 C 13,4 C 85 % 1017,6 hPa 0,0 l/m 0 min 0 min 0 W/m 0,0 km/h (0 Bft) 95,74 %
16.09.2021 21:22 16,6 C 14,4 C 13,4 C 85 % 1017,6 hPa 0,0 l/m 0 min 0 min 0 W/m 0,0 km/h (0 Bft) 93,62 %
16.09.2021 21:24 16,5 C 14,4 C 13,4 C 85 % 1017,6 hPa 0,0 l/m 0 min 0 min 0 W/m 0,0 km/h (0 Bft) 95,74 %
16.09.2021 21:26 16,5 C 14,4 C 13,4 C 85 % 1017,6 hPa 0,0 l/m 0 min 0 min 0 W/m 0,0 km/h (0 Bft) 97,87 %
16.09.2021 21:28 16,5 C 14,4 C 13,4 C 85 % 1017,7 hPa 0,0 l/m 0 min 0 min 0 W/m 0,0 km/h (0 Bft) 97,83 %
16.09.2021 21:30 16,4 C 14,4 C 13,4 C 86 % 1017,6 hPa 0,0 l/m 0 min 0 min 0 W/m 0,0 km/h (0 Bft) 97,87 %
16.09.2021 21:32 16,4 C 14,4 C 13,4 C 86 % 1017,7 hPa 0,0 l/m 0 min 0 min 0 W/m 0,0 km/h (0 Bft) 97,87 %
16.09.2021 21:34 16,4 C 14,4 C 12,8 C 86 % 1017,7 hPa 0,0 l/m 0 min 0 min 0 W/m 0,0 km/h (0 Bft) 95,74 %
16.09.2021 21:36 16,3 C 14,4 C 12,8 C 86 % 1017,7 hPa 0,0 l/m 0 min 0 min 0 W/m 0,0 km/h (0 Bft) 97,87 %
16.09.2021 21:38 16,3 C 14,4 C 12,8 C 86 % 1017,7 hPa 0,0 l/m 0 min 0 min 0 W/m 0,0 km/h (0 Bft) 95,74 %
16.09.2021 21:40 16,3 C 14,4 C 12,8 C 86 % 1017,7 hPa 0,0 l/m 0 min 0 min 0 W/m 0,0 km/h (0 Bft) 97,83 %
16.09.2021 21:42 16,2 C 14,4 C 12,8 C 86 % 1017,7 hPa 0,0 l/m 0 min 0 min 0 W/m 0,0 km/h (0 Bft) 97,87 %
16.09.2021 21:44 16,1 C 14,4 C 12,8 C 87 % 1017,7 hPa 0,0 l/m 0 min 0 min 0 W/m 0,0 km/h (0 Bft) 97,87 %
16.09.2021 21:46 16,1 C 14,4 C 12,8 C 87 % 1017,7 hPa 0,0 l/m 0 min 0 min 0 W/m 0,0 km/h (0 Bft) 97,87 %
16.09.2021 21:48 16,0 C 14,4 C 12,8 C 87 % 1017,8 hPa 0,0 l/m 0 min 0 min 0 W/m 0,0 km/h (0 Bft) 97,87 %
16.09.2021 21:50 16,0 C 14,4 C 12,8 C 87 % 1017,7 hPa 0,0 l/m 0 min 0 min 0 W/m 0,0 km/h (0 Bft) 97,87 %
16.09.2021 21:52 15,9 C 14,4 C 12,8 C 87 % 1017,7 hPa 0,0 l/m 0 min 0 min 0 W/m 0,0 km/h (0 Bft) 97,83 %
16.09.2021 21:54 15,9 C 13,9 C 12,8 C 87 % 1017,8 hPa 0,0 l/m 0 min 0 min 0 W/m 0,0 km/h (0 Bft) 100,00 %
16.09.2021 21:56 15,9 C 13,9 C 12,8 C 87 % 1017,8 hPa 0,0 l/m 0 min 0 min 0 W/m 0,0 km/h (0 Bft) 97,87 %
16.09.2021 21:58 15,8 C 13,9 C 12,8 C 88 % 1017,8 hPa 0,0 l/m 0 min 0 min 0 W/m 0,0 km/h (0 Bft) 100,00 %
16.09.2021 22:00 15,8 C 13,9 C 12,8 C 88 % 1017,8 hPa 0,0 l/m 0 min 0 min 0 W/m 0,0 km/h (0 Bft) 100,00 %
16.09.2021 22:02 15,8 C 13,9 C 12,8 C 88 % 1017,8 hPa 0,0 l/m 0 min 0 min 0 W/m 0,0 km/h (0 Bft) 100,00 %
16.09.2021 22:04 15,7 C 13,9 C 12,8 C 88 % 1017,8 hPa 0,0 l/m 0 min 0 min 0 W/m 0,0 km/h (0 Bft) 100,00 %
16.09.2021 22:06 15,6 C 13,9 C 12,8 C 88 % 1017,8 hPa 0,0 l/m 0 min 0 min 0 W/m 0,0 km/h (0 Bft) 100,00 %
16.09.2021 22:08 15,6 C 13,9 C 12,8 C 88 % 1017,9 hPa 0,0 l/m 0 min 0 min 0 W/m 0,0 km/h (0 Bft) 100,00 %
16.09.2021 22:10 15,5 C 13,9 C 12,8 C 88 % 1017,8 hPa 0,0 l/m 0 min 0 min 0 W/m 0,0 km/h (0 Bft) 100,00 %
16.09.2021 22:12 15,5 C 13,9 C 12,8 C 88 % 1017,9 hPa 0,0 l/m 0 min 0 min 0 W/m 0,0 km/h (0 Bft) 100,00 %
16.09.2021 22:14 15,5 C 13,9 C 12,8 C 89 % 1017,9 hPa 0,0 l/m 0 min 0 min 0 W/m 0,0 km/h (0 Bft) 100,00 %
16.09.2021 22:16 15,5 C 13,9 C 12,8 C 89 % 1017,9 hPa 0,0 l/m 0 min 0 min 0 W/m 0,0 km/h (0 Bft) 100,00 %
16.09.2021 22:18 15,4 C 13,9 C 12,8 C 89 % 1017,9 hPa 0,0 l/m 0 min 0 min 0 W/m 0,0 km/h (0 Bft) 100,00 %
16.09.2021 22:20 15,4 C 13,9 C 12,8 C 89 % 1017,9 hPa 0,0 l/m 0 min 0 min 0 W/m 0,0 km/h (0 Bft) 100,00 %
16.09.2021 22:22 15,4 C 13,9 C 12,8 C 89 % 1017,9 hPa 0,0 l/m 0 min 0 min 0 W/m 0,0 km/h (0 Bft) 100,00 %
16.09.2021 22:24 15,4 C 13,9 C 12,8 C 89 % 1017,9 hPa 0,0 l/m 0 min 0 min 0 W/m 0,0 km/h (0 Bft) 100,00 %
16.09.2021 22:26 15,3 C 13,9 C 12,8 C 89 % 1017,9 hPa 0,0 l/m 0 min 0 min 0 W/m 0,0 km/h (0 Bft) 97,83 %
16.09.2021 22:28 15,3 C 13,9 C 12,8 C 89 % 1017,9 hPa 0,0 l/m 0 min 0 min 0 W/m 0,0 km/h (0 Bft) 100,00 %
16.09.2021 22:30 15,3 C 13,9 C 12,8 C 89 % 1017,9 hPa 0,0 l/m 0 min 0 min 0 W/m 0,0 km/h (0 Bft) 100,00 %
16.09.2021 22:32 15,2 C 13,9 C 12,8 C 89 % 1017,9 hPa 0,0 l/m 0 min 0 min 0 W/m 0,0 km/h (0 Bft) 100,00 %
16.09.2021 22:34 15,2 C 13,9 C 12,8 C 89 % 1018,0 hPa 0,0 l/m 0 min 0 min 0 W/m 0,0 km/h (0 Bft) 100,00 %
16.09.2021 22:36 15,1 C 13,9 C 12,8 C 90 % 1017,9 hPa 0,0 l/m 0 min 0 min 0 W/m 0,0 km/h (0 Bft) 100,00 %
16.09.2021 22:38 15,1 C 13,9 C 12,8 C 90 % 1018,0 hPa 0,0 l/m 0 min 0 min 0 W/m 0,0 km/h (0 Bft) 100,00 %
16.09.2021 22:40 15,1 C 13,9 C 12,8 C 90 % 1017,9 hPa 0,0 l/m 0 min 0 min 0 W/m 0,0 km/h (0 Bft) 100,00 %
16.09.2021 22:42 15,1 C 13,9 C 12,8 C 90 % 1017,9 hPa 0,0 l/m 0 min 0 min 0 W/m 0,0 km/h (0 Bft) 100,00 %
16.09.2021 22:44 15,1 C 13,9 C 12,8 C 90 % 1018,0 hPa 0,0 l/m 0 min 0 min 0 W/m 0,0 km/h (0 Bft) 100,00 %
16.09.2021 22:46 15,1 C 13,9 C 12,8 C 90 % 1018,0 hPa 0,0 l/m 0 min 0 min 0 W/m 0,0 km/h (0 Bft) 100,00 %
16.09.2021 22:48 15,1 C 13,9 C 12,8 C 90 % 1018,0 hPa 0,0 l/m 0 min 0 min 0 W/m 0,0 km/h (0 Bft) 97,87 %
16.09.2021 22:50 15,0 C 13,9 C 12,8 C 90 % 1018,0 hPa 0,0 l/m 0 min 0 min 0 W/m 0,0 km/h (0 Bft) 97,83 %
16.09.2021 22:52 15,0 C 13,9 C 12,8 C 90 % 1017,9 hPa 0,0 l/m 0 min 0 min 0 W/m 0,0 km/h (0 Bft) 100,00 %
16.09.2021 22:54 15,0 C 13,9 C 12,8 C 90 % 1018,0 hPa 0,0 l/m 0 min 0 min 0 W/m 0,0 km/h (0 Bft) 100,00 %
16.09.2021 22:56 15,0 C 13,9 C 12,8 C 91 % 1018,0 hPa 0,0 l/m 0 min 0 min 0 W/m 0,0 km/h (0 Bft) 100,00 %
16.09.2021 22:58 15,0 C 13,9 C 12,8 C 91 % 1018,0 hPa 0,0 l/m 0 min 0 min 0 W/m 0,0 km/h (0 Bft) 93,62 %
16.09.2021 23:00 15,0 C 13,9 C 12,8 C 91 % 1017,9 hPa 0,0 l/m 0 min 0 min 0 W/m 0,0 km/h (0 Bft) 100,00 %
16.09.2021 23:02 15,0 C 13,9 C 12,8 C 91 % 1017,9 hPa 0,0 l/m 0 min 0 min 0 W/m 0,0 km/h (0 Bft) 97,92 %
16.09.2021 23:04 14,9 C 13,9 C 12,8 C 91 % 1017,9 hPa 0,0 l/m 0 min 0 min 0 W/m 0,0 km/h (0 Bft) 97,87 %
16.09.2021 23:06 14,9 C 13,9 C 12,8 C 91 % 1017,9 hPa 0,0 l/m 0 min 0 min 0 W/m 0,0 km/h (0 Bft) 95,74 %
16.09.2021 23:08 14,9 C 13,9 C 12,8 C 91 % 1017,9 hPa 0,0 l/m 0 min 0 min 0 W/m 0,0 km/h (0 Bft) 95,74 %
16.09.2021 23:10 14,9 C 13,9 C 12,8 C 91 % 1017,9 hPa 0,0 l/m 0 min 0 min 0 W/m 0,0 km/h (0 Bft) 91,30 %
16.09.2021 23:12 14,9 C 13,9 C 12,8 C 91 % 1017,9 hPa 0,0 l/m 0 min 0 min 0 W/m 0,0 km/h (0 Bft) 95,74 %
16.09.2021 23:14 14,8 C 13,9 C 12,8 C 91 % 1017,9 hPa 0,0 l/m 0 min 0 min 0 W/m 0,0 km/h (0 Bft) 93,62 %
16.09.2021 23:16 14,8 C 13,9 C 12,8 C 91 % 1017,9 hPa 0,0 l/m 0 min 0 min 0 W/m 0,0 km/h (0 Bft) 93,62 %
16.09.2021 23:18 14,8 C 13,9 C 12,3 C 91 % 1017,9 hPa 0,0 l/m 0 min 0 min 0 W/m 0,0 km/h (0 Bft) 93,62 %
16.09.2021 23:20 14,8 C 13,3 C 12,3 C 91 % 1017,9 hPa 0,0 l/m 0 min 0 min 0 W/m 0,0 km/h (0 Bft) 91,49 %
16.09.2021 23:22 14,8 C 13,3 C 12,3 C 91 % 1017,9 hPa 0,0 l/m 0 min 0 min 0 W/m 0,0 km/h (0 Bft) 93,48 %
16.09.2021 23:24 14,7 C 13,3 C 12,3 C 91 % 1017,9 hPa 0,0 l/m 0 min 0 min 0 W/m 0,0 km/h (0 Bft) 93,62 %
16.09.2021 23:26 14,7 C 13,3 C 12,3 C 91 % 1017,9 hPa 0,0 l/m 0 min 0 min 0 W/m 0,0 km/h (0 Bft) 91,49 %
16.09.2021 23:28 14,7 C 13,3 C 12,3 C 91 % 1017,9 hPa 0,0 l/m 0 min 0 min 0 W/m 0,0 km/h (0 Bft) 93,62 %
16.09.2021 23:30 14,6 C 13,3 C 12,3 C 91 % 1018,0 hPa 0,0 l/m 0 min 0 min 0 W/m 0,0 km/h (0 Bft) 93,62 %
16.09.2021 23:32 14,6 C 13,3 C 12,3 C 91 % 1018,0 hPa 0,0 l/m 0 min 0 min 0 W/m 0,0 km/h (0 Bft) 93,62 %
16.09.2021 23:34 14,6 C 13,3 C 12,3 C 91 % 1017,9 hPa 0,0 l/m 0 min 0 min 0 W/m 0,0 km/h (0 Bft) 93,48 %
16.09.2021 23:36 14,6 C 13,3 C 12,3 C 92 % 1018,0 hPa 0,0 l/m 0 min 0 min 0 W/m 0,0 km/h (0 Bft) 97,87 %
16.09.2021 23:38 14,5 C 13,3 C 12,3 C 92 % 1018,0 hPa 0,0 l/m 0 min 0 min 0 W/m 0,0 km/h (0 Bft) 93,62 %
16.09.2021 23:40 14,5 C 13,3 C 12,3 C 91 % 1018,0 hPa 0,0 l/m 0 min 0 min 0 W/m 0,0 km/h (0 Bft) 97,87 %
16.09.2021 23:42 14,5 C 13,3 C 12,3 C 91 % 1018,0 hPa 0,0 l/m 0 min 0 min 0 W/m 0,0 km/h (0 Bft) 95,74 %
16.09.2021 23:44 14,5 C 13,3 C 12,3 C 91 % 1018,1 hPa 0,0 l/m 0 min 0 min 0 W/m 0,0 km/h (0 Bft) 97,83 %
16.09.2021 23:46 14,5 C 13,3 C 12,3 C 91 % 1018,1 hPa 0,0 l/m 0 min 0 min 0 W/m 0,0 km/h (0 Bft) 95,74 %
16.09.2021 23:48 14,4 C 13,3 C 12,3 C 92 % 1018,0 hPa 0,0 l/m 0 min 0 min 0 W/m 0,0 km/h (0 Bft) 97,87 %
16.09.2021 23:50 14,4 C 13,3 C 12,3 C 92 % 1018,1 hPa 0,0 l/m 0 min 0 min 0 W/m 0,0 km/h (0 Bft) 97,87 %
16.09.2021 23:52 14,4 C 13,3 C 12,3 C 92 % 1018,1 hPa 0,0 l/m 0 min 0 min 0 W/m 0,0 km/h (0 Bft) 97,87 %
16.09.2021 23:54 14,4 C 13,3 C 12,3 C 92 % 1018,1 hPa 0,0 l/m 0 min 0 min 0 W/m 0,0 km/h (0 Bft) 95,74 %
16.09.2021 23:56 14,4 C 13,3 C 12,3 C 92 % 1018,0 hPa 0,0 l/m 0 min 0 min 0 W/m 0,0 km/h (0 Bft) 95,65 %
16.09.2021 23:58 14,3 C 13,3 C 12,3 C 92 % 1018,1 hPa 0,0 l/m 0 min 0 min 0 W/m 0,0 km/h (0 Bft) 97,87 %
_ Min-Zeit 06:28 05:58 04:52 17:50 00:00 - - - - 02:12 06:28
Minimum _ 12,6 C 11,7 C 11,7 C 68 % 1014,7 hPa - - - - 0,0 km/h (0 Bft) 51,22 %
_ Max-Zeit 17:54 16:18 11:48 07:12 23:44 00:00 10:04 00:00 11:38 17:46 01:08
Maximum _ 21,0 C 26,1 C 20,0 C 95 % 1018,1 hPa 0,0 l/m 2 min 0 min 811 W/m 22,5 km/h
N-NW (4 Bft)
100,00 %
Durchschnitt _ 16,5 C 16,3 C 14,8 C 84 % 1016,7 hPa #0,0 l/m #3:16 h #0 min. 215 W/m 6,3 km/h (2 Bft) 96,71 %
© 2021 W. Hausmann